<?xml version="1.0" encoding="UTF-8" standalone="no" ?>
<gpx xmlns="http://www.topografix.com/GPX/1/1" xmlns:xsi="http://www.w3.org/2001/XMLSchema-instance" xsi:schemaLocation="http://www.topografix.com/GPX/1/1 http://www.topografix.com/GPX/1/1/gpx.xsd" version="1.1" creator="VisuGPX - https://www.visugpx.com">
  <metadata>
    <name>Tracé actuel: 20 DEC 2020 13:17</name>
    <desc><![CDATA[un peu frisquet aux éoliennes]]></desc>
  </metadata>
  <trk>
    <name><![CDATA[Tracé actuel: 20 DEC 2020 13:17]]></name>
    <trkseg>
      <trkpt lat="49.63448" lon="4.98064">
        <ele>186.15</ele>
        <time>2020-12-20T12:17:08Z</time>
      </trkpt>
      <trkpt lat="49.63442" lon="4.98048">
        <ele>201.53</ele>
        <time>2020-12-20T12:17:27Z</time>
      </trkpt>
      <trkpt lat="49.63435" lon="4.9803">
        <ele>197.21</ele>
        <time>2020-12-20T12:17:41Z</time>
      </trkpt>
      <trkpt lat="49.63425" lon="4.98025">
        <ele>195.28</ele>
        <time>2020-12-20T12:17:57Z</time>
      </trkpt>
      <trkpt lat="49.63421" lon="4.9802">
        <ele>194.8</ele>
        <time>2020-12-20T12:18:03Z</time>
      </trkpt>
      <trkpt lat="49.63412" lon="4.98001">
        <ele>190.96</ele>
        <time>2020-12-20T12:18:21Z</time>
      </trkpt>
      <trkpt lat="49.63402" lon="4.97986">
        <ele>190.48</ele>
        <time>2020-12-20T12:18:37Z</time>
      </trkpt>
      <trkpt lat="49.63394" lon="4.97972">
        <ele>189.52</ele>
        <time>2020-12-20T12:18:52Z</time>
      </trkpt>
      <trkpt lat="49.6339" lon="4.97943">
        <ele>184.71</ele>
        <time>2020-12-20T12:19:10Z</time>
      </trkpt>
      <trkpt lat="49.63392" lon="4.9794">
        <ele>184.23</ele>
        <time>2020-12-20T12:19:12Z</time>
      </trkpt>
      <trkpt lat="49.63404" lon="4.97929">
        <ele>182.31</ele>
        <time>2020-12-20T12:19:27Z</time>
      </trkpt>
      <trkpt lat="49.63412" lon="4.97916">
        <ele>175.1</ele>
        <time>2020-12-20T12:19:41Z</time>
      </trkpt>
      <trkpt lat="49.63414" lon="4.97914">
        <ele>174.62</ele>
        <time>2020-12-20T12:19:43Z</time>
      </trkpt>
      <trkpt lat="49.63429" lon="4.97904">
        <ele>172.21</ele>
        <time>2020-12-20T12:20:00Z</time>
      </trkpt>
      <trkpt lat="49.63439" lon="4.97897">
        <ele>169.81</ele>
        <time>2020-12-20T12:20:13Z</time>
      </trkpt>
      <trkpt lat="49.63456" lon="4.9788">
        <ele>165.96</ele>
        <time>2020-12-20T12:20:33Z</time>
      </trkpt>
      <trkpt lat="49.63461" lon="4.97873">
        <ele>165</ele>
        <time>2020-12-20T12:20:39Z</time>
      </trkpt>
      <trkpt lat="49.63476" lon="4.97849">
        <ele>164.52</ele>
        <time>2020-12-20T12:21:00Z</time>
      </trkpt>
      <trkpt lat="49.63491" lon="4.9783">
        <ele>165</ele>
        <time>2020-12-20T12:21:16Z</time>
      </trkpt>
      <trkpt lat="49.63509" lon="4.97808">
        <ele>165.48</ele>
        <time>2020-12-20T12:21:36Z</time>
      </trkpt>
      <trkpt lat="49.63522" lon="4.9779">
        <ele>162.12</ele>
        <time>2020-12-20T12:21:55Z</time>
      </trkpt>
      <trkpt lat="49.63526" lon="4.97786">
        <ele>161.64</ele>
        <time>2020-12-20T12:22:00Z</time>
      </trkpt>
      <trkpt lat="49.63542" lon="4.97764">
        <ele>161.16</ele>
        <time>2020-12-20T12:22:19Z</time>
      </trkpt>
      <trkpt lat="49.63552" lon="4.97736">
        <ele>157.31</ele>
        <time>2020-12-20T12:22:38Z</time>
      </trkpt>
      <trkpt lat="49.63555" lon="4.97721">
        <ele>155.87</ele>
        <time>2020-12-20T12:22:53Z</time>
      </trkpt>
      <trkpt lat="49.63566" lon="4.97696">
        <ele>152.03</ele>
        <time>2020-12-20T12:23:11Z</time>
      </trkpt>
      <trkpt lat="49.6358" lon="4.97679">
        <ele>149.14</ele>
        <time>2020-12-20T12:23:28Z</time>
      </trkpt>
      <trkpt lat="49.63593" lon="4.97659">
        <ele>148.18</ele>
        <time>2020-12-20T12:23:46Z</time>
      </trkpt>
      <trkpt lat="49.63594" lon="4.97656">
        <ele>147.7</ele>
        <time>2020-12-20T12:23:48Z</time>
      </trkpt>
      <trkpt lat="49.63592" lon="4.97647">
        <ele>147.22</ele>
        <time>2020-12-20T12:23:56Z</time>
      </trkpt>
      <trkpt lat="49.6358" lon="4.97627">
        <ele>149.14</ele>
        <time>2020-12-20T12:24:16Z</time>
      </trkpt>
      <trkpt lat="49.63564" lon="4.97603">
        <ele>150.1</ele>
        <time>2020-12-20T12:24:37Z</time>
      </trkpt>
      <trkpt lat="49.63551" lon="4.97581">
        <ele>151.54</ele>
        <time>2020-12-20T12:24:55Z</time>
      </trkpt>
      <trkpt lat="49.63537" lon="4.97558">
        <ele>152.99</ele>
        <time>2020-12-20T12:25:14Z</time>
      </trkpt>
      <trkpt lat="49.63522" lon="4.97529">
        <ele>155.87</ele>
        <time>2020-12-20T12:25:35Z</time>
      </trkpt>
      <trkpt lat="49.63509" lon="4.97507">
        <ele>157.31</ele>
        <time>2020-12-20T12:25:53Z</time>
      </trkpt>
      <trkpt lat="49.63501" lon="4.97489">
        <ele>155.87</ele>
        <time>2020-12-20T12:26:08Z</time>
      </trkpt>
      <trkpt lat="49.63491" lon="4.97471">
        <ele>155.87</ele>
        <time>2020-12-20T12:26:24Z</time>
      </trkpt>
      <trkpt lat="49.63478" lon="4.97446">
        <ele>158.75</ele>
        <time>2020-12-20T12:26:44Z</time>
      </trkpt>
      <trkpt lat="49.63465" lon="4.97424">
        <ele>161.16</ele>
        <time>2020-12-20T12:27:03Z</time>
      </trkpt>
      <trkpt lat="49.63457" lon="4.97406">
        <ele>162.12</ele>
        <time>2020-12-20T12:27:23Z</time>
      </trkpt>
      <trkpt lat="49.63451" lon="4.97398">
        <ele>159.24</ele>
        <time>2020-12-20T12:27:41Z</time>
      </trkpt>
      <trkpt lat="49.63444" lon="4.97379">
        <ele>160.2</ele>
        <time>2020-12-20T12:27:58Z</time>
      </trkpt>
      <trkpt lat="49.63437" lon="4.97368">
        <ele>158.75</ele>
        <time>2020-12-20T12:28:18Z</time>
      </trkpt>
      <trkpt lat="49.63429" lon="4.97353">
        <ele>155.87</ele>
        <time>2020-12-20T12:28:44Z</time>
      </trkpt>
      <trkpt lat="49.63423" lon="4.97345">
        <ele>153.47</ele>
        <time>2020-12-20T12:29:06Z</time>
      </trkpt>
      <trkpt lat="49.63418" lon="4.97334">
        <ele>152.51</ele>
        <time>2020-12-20T12:29:27Z</time>
      </trkpt>
      <trkpt lat="49.63412" lon="4.97324">
        <ele>152.03</ele>
        <time>2020-12-20T12:29:46Z</time>
      </trkpt>
      <trkpt lat="49.63404" lon="4.97298">
        <ele>151.54</ele>
        <time>2020-12-20T12:30:06Z</time>
      </trkpt>
      <trkpt lat="49.63372" lon="4.97216">
        <ele>153.95</ele>
        <time>2020-12-20T12:30:26Z</time>
      </trkpt>
      <trkpt lat="49.63347" lon="4.97165">
        <ele>151.54</ele>
        <time>2020-12-20T12:30:45Z</time>
      </trkpt>
      <trkpt lat="49.63334" lon="4.97134">
        <ele>152.03</ele>
        <time>2020-12-20T12:31:03Z</time>
      </trkpt>
      <trkpt lat="49.63325" lon="4.97107">
        <ele>152.03</ele>
        <time>2020-12-20T12:31:23Z</time>
      </trkpt>
      <trkpt lat="49.63319" lon="4.97078">
        <ele>149.14</ele>
        <time>2020-12-20T12:31:41Z</time>
      </trkpt>
      <trkpt lat="49.63312" lon="4.97053">
        <ele>146.74</ele>
        <time>2020-12-20T12:31:57Z</time>
      </trkpt>
      <trkpt lat="49.63307" lon="4.97028">
        <ele>143.85</ele>
        <time>2020-12-20T12:32:13Z</time>
      </trkpt>
      <trkpt lat="49.63298" lon="4.96991">
        <ele>139.53</ele>
        <time>2020-12-20T12:32:34Z</time>
      </trkpt>
      <trkpt lat="49.63289" lon="4.96961">
        <ele>137.61</ele>
        <time>2020-12-20T12:32:52Z</time>
      </trkpt>
      <trkpt lat="49.63286" lon="4.96946">
        <ele>139.05</ele>
        <time>2020-12-20T12:33:09Z</time>
      </trkpt>
      <trkpt lat="49.63278" lon="4.96919">
        <ele>143.37</ele>
        <time>2020-12-20T12:33:26Z</time>
      </trkpt>
      <trkpt lat="49.63264" lon="4.96883">
        <ele>144.82</ele>
        <time>2020-12-20T12:33:45Z</time>
      </trkpt>
      <trkpt lat="49.63255" lon="4.96858">
        <ele>144.34</ele>
        <time>2020-12-20T12:34:03Z</time>
      </trkpt>
      <trkpt lat="49.63251" lon="4.96847">
        <ele>145.78</ele>
        <time>2020-12-20T12:34:25Z</time>
      </trkpt>
      <trkpt lat="49.63246" lon="4.96837">
        <ele>148.66</ele>
        <time>2020-12-20T12:34:38Z</time>
      </trkpt>
      <trkpt lat="49.6323" lon="4.96812">
        <ele>148.18</ele>
        <time>2020-12-20T12:34:58Z</time>
      </trkpt>
      <trkpt lat="49.63219" lon="4.96795">
        <ele>147.22</ele>
        <time>2020-12-20T12:35:19Z</time>
      </trkpt>
      <trkpt lat="49.63193" lon="4.96767">
        <ele>146.74</ele>
        <time>2020-12-20T12:35:40Z</time>
      </trkpt>
      <trkpt lat="49.63174" lon="4.96748">
        <ele>149.62</ele>
        <time>2020-12-20T12:35:56Z</time>
      </trkpt>
      <trkpt lat="49.63148" lon="4.96723">
        <ele>150.58</ele>
        <time>2020-12-20T12:36:12Z</time>
      </trkpt>
      <trkpt lat="49.63131" lon="4.9671">
        <ele>150.58</ele>
        <time>2020-12-20T12:36:30Z</time>
      </trkpt>
      <trkpt lat="49.63115" lon="4.96696">
        <ele>150.58</ele>
        <time>2020-12-20T12:36:51Z</time>
      </trkpt>
      <trkpt lat="49.63104" lon="4.96684">
        <ele>151.06</ele>
        <time>2020-12-20T12:37:10Z</time>
      </trkpt>
      <trkpt lat="49.63096" lon="4.96677">
        <ele>151.54</ele>
        <time>2020-12-20T12:37:31Z</time>
      </trkpt>
      <trkpt lat="49.63074" lon="4.96655">
        <ele>148.18</ele>
        <time>2020-12-20T12:37:50Z</time>
      </trkpt>
      <trkpt lat="49.63036" lon="4.96624">
        <ele>148.18</ele>
        <time>2020-12-20T12:38:06Z</time>
      </trkpt>
      <trkpt lat="49.63015" lon="4.96606">
        <ele>148.66</ele>
        <time>2020-12-20T12:38:22Z</time>
      </trkpt>
      <trkpt lat="49.62995" lon="4.96588">
        <ele>149.14</ele>
        <time>2020-12-20T12:38:42Z</time>
      </trkpt>
      <trkpt lat="49.62979" lon="4.96575">
        <ele>148.66</ele>
        <time>2020-12-20T12:39:01Z</time>
      </trkpt>
      <trkpt lat="49.62958" lon="4.96558">
        <ele>149.62</ele>
        <time>2020-12-20T12:39:23Z</time>
      </trkpt>
      <trkpt lat="49.62944" lon="4.96547">
        <ele>149.62</ele>
        <time>2020-12-20T12:39:40Z</time>
      </trkpt>
      <trkpt lat="49.62933" lon="4.96534">
        <ele>150.1</ele>
        <time>2020-12-20T12:39:58Z</time>
      </trkpt>
      <trkpt lat="49.62919" lon="4.96524">
        <ele>151.06</ele>
        <time>2020-12-20T12:40:10Z</time>
      </trkpt>
      <trkpt lat="49.62908" lon="4.96519">
        <ele>151.06</ele>
        <time>2020-12-20T12:40:17Z</time>
      </trkpt>
      <trkpt lat="49.62889" lon="4.96506">
        <ele>152.51</ele>
        <time>2020-12-20T12:40:36Z</time>
      </trkpt>
      <trkpt lat="49.62878" lon="4.96498">
        <ele>153.95</ele>
        <time>2020-12-20T12:40:54Z</time>
      </trkpt>
      <trkpt lat="49.62869" lon="4.96491">
        <ele>156.83</ele>
        <time>2020-12-20T12:41:15Z</time>
      </trkpt>
      <trkpt lat="49.62863" lon="4.96488">
        <ele>158.75</ele>
        <time>2020-12-20T12:41:36Z</time>
      </trkpt>
      <trkpt lat="49.62844" lon="4.96481">
        <ele>164.04</ele>
        <time>2020-12-20T12:41:56Z</time>
      </trkpt>
      <trkpt lat="49.62825" lon="4.96471">
        <ele>165</ele>
        <time>2020-12-20T12:42:17Z</time>
      </trkpt>
      <trkpt lat="49.62799" lon="4.96457">
        <ele>165.48</ele>
        <time>2020-12-20T12:42:36Z</time>
      </trkpt>
      <trkpt lat="49.62786" lon="4.96449">
        <ele>165.96</ele>
        <time>2020-12-20T12:42:55Z</time>
      </trkpt>
      <trkpt lat="49.62766" lon="4.96439">
        <ele>168.37</ele>
        <time>2020-12-20T12:43:12Z</time>
      </trkpt>
      <trkpt lat="49.62715" lon="4.96401">
        <ele>167.41</ele>
        <time>2020-12-20T12:43:32Z</time>
      </trkpt>
      <trkpt lat="49.62698" lon="4.96394">
        <ele>167.41</ele>
        <time>2020-12-20T12:43:48Z</time>
      </trkpt>
      <trkpt lat="49.62676" lon="4.96381">
        <ele>165.96</ele>
        <time>2020-12-20T12:44:06Z</time>
      </trkpt>
      <trkpt lat="49.62654" lon="4.96367">
        <ele>164.04</ele>
        <time>2020-12-20T12:44:27Z</time>
      </trkpt>
      <trkpt lat="49.62635" lon="4.96357">
        <ele>163.56</ele>
        <time>2020-12-20T12:44:45Z</time>
      </trkpt>
      <trkpt lat="49.62627" lon="4.96354">
        <ele>163.56</ele>
        <time>2020-12-20T12:44:53Z</time>
      </trkpt>
      <trkpt lat="49.62607" lon="4.96341">
        <ele>162.6</ele>
        <time>2020-12-20T12:45:11Z</time>
      </trkpt>
      <trkpt lat="49.62605" lon="4.96339">
        <ele>162.6</ele>
        <time>2020-12-20T12:45:14Z</time>
      </trkpt>
      <trkpt lat="49.62604" lon="4.96331">
        <ele>163.08</ele>
        <time>2020-12-20T12:45:19Z</time>
      </trkpt>
      <trkpt lat="49.62609" lon="4.96306">
        <ele>165.48</ele>
        <time>2020-12-20T12:45:36Z</time>
      </trkpt>
      <trkpt lat="49.62615" lon="4.96276">
        <ele>166.93</ele>
        <time>2020-12-20T12:45:53Z</time>
      </trkpt>
      <trkpt lat="49.62621" lon="4.96244">
        <ele>162.6</ele>
        <time>2020-12-20T12:46:13Z</time>
      </trkpt>
      <trkpt lat="49.62624" lon="4.9622">
        <ele>159.72</ele>
        <time>2020-12-20T12:46:29Z</time>
      </trkpt>
      <trkpt lat="49.62635" lon="4.96199">
        <ele>158.75</ele>
        <time>2020-12-20T12:46:47Z</time>
      </trkpt>
      <trkpt lat="49.62641" lon="4.96199">
        <ele>158.75</ele>
        <time>2020-12-20T12:46:53Z</time>
      </trkpt>
      <trkpt lat="49.62662" lon="4.96207">
        <ele>160.68</ele>
        <time>2020-12-20T12:47:11Z</time>
      </trkpt>
      <trkpt lat="49.62679" lon="4.96213">
        <ele>162.12</ele>
        <time>2020-12-20T12:47:28Z</time>
      </trkpt>
      <trkpt lat="49.62683" lon="4.96215">
        <ele>161.16</ele>
        <time>2020-12-20T12:47:31Z</time>
      </trkpt>
      <trkpt lat="49.62685" lon="4.96214">
        <ele>160.68</ele>
        <time>2020-12-20T12:47:33Z</time>
      </trkpt>
      <trkpt lat="49.62685" lon="4.96207">
        <ele>160.2</ele>
        <time>2020-12-20T12:47:38Z</time>
      </trkpt>
      <trkpt lat="49.62674" lon="4.96181">
        <ele>161.64</ele>
        <time>2020-12-20T12:47:58Z</time>
      </trkpt>
      <trkpt lat="49.6266" lon="4.96159">
        <ele>165</ele>
        <time>2020-12-20T12:48:17Z</time>
      </trkpt>
      <trkpt lat="49.62645" lon="4.9614">
        <ele>168.37</ele>
        <time>2020-12-20T12:48:36Z</time>
      </trkpt>
      <trkpt lat="49.62632" lon="4.96123">
        <ele>170.77</ele>
        <time>2020-12-20T12:48:55Z</time>
      </trkpt>
      <trkpt lat="49.6262" lon="4.96107">
        <ele>173.17</ele>
        <time>2020-12-20T12:49:12Z</time>
      </trkpt>
      <trkpt lat="49.62605" lon="4.96097">
        <ele>176.06</ele>
        <time>2020-12-20T12:49:29Z</time>
      </trkpt>
      <trkpt lat="49.62601" lon="4.96096">
        <ele>177.5</ele>
        <time>2020-12-20T12:49:33Z</time>
      </trkpt>
      <trkpt lat="49.62587" lon="4.96095">
        <ele>179.9</ele>
        <time>2020-12-20T12:49:45Z</time>
      </trkpt>
      <trkpt lat="49.62569" lon="4.96097">
        <ele>179.9</ele>
        <time>2020-12-20T12:50:03Z</time>
      </trkpt>
      <trkpt lat="49.62553" lon="4.96101">
        <ele>176.06</ele>
        <time>2020-12-20T12:50:21Z</time>
      </trkpt>
      <trkpt lat="49.62534" lon="4.96105">
        <ele>171.73</ele>
        <time>2020-12-20T12:50:38Z</time>
      </trkpt>
      <trkpt lat="49.62514" lon="4.96109">
        <ele>167.89</ele>
        <time>2020-12-20T12:50:53Z</time>
      </trkpt>
      <trkpt lat="49.625" lon="4.96108">
        <ele>167.89</ele>
        <time>2020-12-20T12:51:07Z</time>
      </trkpt>
      <trkpt lat="49.62484" lon="4.96106">
        <ele>167.89</ele>
        <time>2020-12-20T12:51:23Z</time>
      </trkpt>
      <trkpt lat="49.62479" lon="4.96104">
        <ele>167.41</ele>
        <time>2020-12-20T12:51:29Z</time>
      </trkpt>
      <trkpt lat="49.62458" lon="4.96095">
        <ele>167.41</ele>
        <time>2020-12-20T12:51:48Z</time>
      </trkpt>
      <trkpt lat="49.6244" lon="4.96087">
        <ele>167.89</ele>
        <time>2020-12-20T12:52:05Z</time>
      </trkpt>
      <trkpt lat="49.62424" lon="4.96075">
        <ele>167.41</ele>
        <time>2020-12-20T12:52:22Z</time>
      </trkpt>
      <trkpt lat="49.62405" lon="4.96063">
        <ele>167.41</ele>
        <time>2020-12-20T12:52:41Z</time>
      </trkpt>
      <trkpt lat="49.62389" lon="4.96043">
        <ele>169.81</ele>
        <time>2020-12-20T12:52:59Z</time>
      </trkpt>
      <trkpt lat="49.62385" lon="4.96032">
        <ele>169.33</ele>
        <time>2020-12-20T12:53:06Z</time>
      </trkpt>
      <trkpt lat="49.62382" lon="4.96022">
        <ele>169.33</ele>
        <time>2020-12-20T12:53:11Z</time>
      </trkpt>
      <trkpt lat="49.62374" lon="4.95991">
        <ele>170.77</ele>
        <time>2020-12-20T12:53:30Z</time>
      </trkpt>
      <trkpt lat="49.62368" lon="4.95962">
        <ele>171.73</ele>
        <time>2020-12-20T12:53:48Z</time>
      </trkpt>
      <trkpt lat="49.62364" lon="4.95933">
        <ele>173.66</ele>
        <time>2020-12-20T12:54:06Z</time>
      </trkpt>
      <trkpt lat="49.62359" lon="4.95912">
        <ele>176.06</ele>
        <time>2020-12-20T12:54:21Z</time>
      </trkpt>
      <trkpt lat="49.62353" lon="4.95893">
        <ele>177.02</ele>
        <time>2020-12-20T12:54:39Z</time>
      </trkpt>
      <trkpt lat="49.62351" lon="4.9589">
        <ele>177.02</ele>
        <time>2020-12-20T12:54:41Z</time>
      </trkpt>
      <trkpt lat="49.6233" lon="4.95883">
        <ele>180.38</ele>
        <time>2020-12-20T12:54:56Z</time>
      </trkpt>
      <trkpt lat="49.62318" lon="4.95887">
        <ele>180.87</ele>
        <time>2020-12-20T12:55:08Z</time>
      </trkpt>
      <trkpt lat="49.62298" lon="4.95895">
        <ele>180.87</ele>
        <time>2020-12-20T12:55:26Z</time>
      </trkpt>
      <trkpt lat="49.62288" lon="4.95894">
        <ele>182.31</ele>
        <time>2020-12-20T12:55:39Z</time>
      </trkpt>
      <trkpt lat="49.62282" lon="4.95859">
        <ele>179.9</ele>
        <time>2020-12-20T12:55:56Z</time>
      </trkpt>
      <trkpt lat="49.62276" lon="4.9583">
        <ele>180.38</ele>
        <time>2020-12-20T12:56:13Z</time>
      </trkpt>
      <trkpt lat="49.62276" lon="4.95824">
        <ele>180.87</ele>
        <time>2020-12-20T12:56:16Z</time>
      </trkpt>
      <trkpt lat="49.62275" lon="4.95794">
        <ele>183.75</ele>
        <time>2020-12-20T12:56:35Z</time>
      </trkpt>
      <trkpt lat="49.62275" lon="4.95763">
        <ele>185.19</ele>
        <time>2020-12-20T12:56:54Z</time>
      </trkpt>
      <trkpt lat="49.62276" lon="4.95725">
        <ele>183.27</ele>
        <time>2020-12-20T12:57:14Z</time>
      </trkpt>
      <trkpt lat="49.62275" lon="4.9571">
        <ele>182.79</ele>
        <time>2020-12-20T12:57:23Z</time>
      </trkpt>
      <trkpt lat="49.62267" lon="4.95683">
        <ele>179.9</ele>
        <time>2020-12-20T12:57:40Z</time>
      </trkpt>
      <trkpt lat="49.6226" lon="4.95656">
        <ele>178.46</ele>
        <time>2020-12-20T12:57:58Z</time>
      </trkpt>
      <trkpt lat="49.62259" lon="4.95651">
        <ele>177.98</ele>
        <time>2020-12-20T12:58:18Z</time>
      </trkpt>
      <trkpt lat="49.62257" lon="4.9564">
        <ele>177.98</ele>
        <time>2020-12-20T12:58:45Z</time>
      </trkpt>
      <trkpt lat="49.62256" lon="4.95624">
        <ele>178.46</ele>
        <time>2020-12-20T12:59:07Z</time>
      </trkpt>
      <trkpt lat="49.62253" lon="4.95585">
        <ele>177.02</ele>
        <time>2020-12-20T12:59:26Z</time>
      </trkpt>
      <trkpt lat="49.62245" lon="4.95568">
        <ele>176.06</ele>
        <time>2020-12-20T12:59:46Z</time>
      </trkpt>
      <trkpt lat="49.62238" lon="4.95545">
        <ele>174.62</ele>
        <time>2020-12-20T13:00:05Z</time>
      </trkpt>
      <trkpt lat="49.62233" lon="4.95532">
        <ele>173.66</ele>
        <time>2020-12-20T13:00:24Z</time>
      </trkpt>
      <trkpt lat="49.62231" lon="4.95543">
        <ele>174.62</ele>
        <time>2020-12-20T13:00:44Z</time>
      </trkpt>
      <trkpt lat="49.62226" lon="4.95586">
        <ele>178.94</ele>
        <time>2020-12-20T13:01:08Z</time>
      </trkpt>
      <trkpt lat="49.62214" lon="4.95629">
        <ele>183.75</ele>
        <time>2020-12-20T13:01:32Z</time>
      </trkpt>
      <trkpt lat="49.6221" lon="4.95655">
        <ele>185.67</ele>
        <time>2020-12-20T13:01:51Z</time>
      </trkpt>
      <trkpt lat="49.62208" lon="4.95673">
        <ele>186.63</ele>
        <time>2020-12-20T13:02:10Z</time>
      </trkpt>
      <trkpt lat="49.62209" lon="4.95687">
        <ele>188.56</ele>
        <time>2020-12-20T13:02:29Z</time>
      </trkpt>
      <trkpt lat="49.62209" lon="4.95703">
        <ele>190</ele>
        <time>2020-12-20T13:02:49Z</time>
      </trkpt>
      <trkpt lat="49.62209" lon="4.95717">
        <ele>191.44</ele>
        <time>2020-12-20T13:03:09Z</time>
      </trkpt>
      <trkpt lat="49.62208" lon="4.95731">
        <ele>192.88</ele>
        <time>2020-12-20T13:03:29Z</time>
      </trkpt>
      <trkpt lat="49.62198" lon="4.95751">
        <ele>192.4</ele>
        <time>2020-12-20T13:03:49Z</time>
      </trkpt>
      <trkpt lat="49.6219" lon="4.95768">
        <ele>194.32</ele>
        <time>2020-12-20T13:04:07Z</time>
      </trkpt>
      <trkpt lat="49.6218" lon="4.95787">
        <ele>194.8</ele>
        <time>2020-12-20T13:04:23Z</time>
      </trkpt>
      <trkpt lat="49.62168" lon="4.95815">
        <ele>194.8</ele>
        <time>2020-12-20T13:04:42Z</time>
      </trkpt>
      <trkpt lat="49.62141" lon="4.95855">
        <ele>195.28</ele>
        <time>2020-12-20T13:05:01Z</time>
      </trkpt>
      <trkpt lat="49.62109" lon="4.95883">
        <ele>193.36</ele>
        <time>2020-12-20T13:05:20Z</time>
      </trkpt>
      <trkpt lat="49.62078" lon="4.95915">
        <ele>190</ele>
        <time>2020-12-20T13:05:40Z</time>
      </trkpt>
      <trkpt lat="49.62064" lon="4.9593">
        <ele>193.84</ele>
        <time>2020-12-20T13:05:58Z</time>
      </trkpt>
      <trkpt lat="49.62046" lon="4.95942">
        <ele>196.73</ele>
        <time>2020-12-20T13:06:16Z</time>
      </trkpt>
      <trkpt lat="49.62031" lon="4.95951">
        <ele>197.69</ele>
        <time>2020-12-20T13:06:31Z</time>
      </trkpt>
      <trkpt lat="49.62011" lon="4.9595">
        <ele>196.25</ele>
        <time>2020-12-20T13:06:49Z</time>
      </trkpt>
      <trkpt lat="49.61985" lon="4.9594">
        <ele>190.48</ele>
        <time>2020-12-20T13:07:09Z</time>
      </trkpt>
      <trkpt lat="49.61962" lon="4.95933">
        <ele>190.48</ele>
        <time>2020-12-20T13:07:30Z</time>
      </trkpt>
      <trkpt lat="49.61942" lon="4.95931">
        <ele>191.44</ele>
        <time>2020-12-20T13:07:49Z</time>
      </trkpt>
      <trkpt lat="49.61915" lon="4.9593">
        <ele>193.84</ele>
        <time>2020-12-20T13:08:10Z</time>
      </trkpt>
      <trkpt lat="49.61895" lon="4.95934">
        <ele>194.32</ele>
        <time>2020-12-20T13:08:29Z</time>
      </trkpt>
      <trkpt lat="49.61876" lon="4.95926">
        <ele>196.73</ele>
        <time>2020-12-20T13:08:48Z</time>
      </trkpt>
      <trkpt lat="49.61866" lon="4.95921">
        <ele>196.73</ele>
        <time>2020-12-20T13:09:07Z</time>
      </trkpt>
      <trkpt lat="49.61861" lon="4.95922">
        <ele>198.17</ele>
        <time>2020-12-20T13:09:27Z</time>
      </trkpt>
      <trkpt lat="49.61837" lon="4.95933">
        <ele>200.57</ele>
        <time>2020-12-20T13:09:45Z</time>
      </trkpt>
      <trkpt lat="49.61812" lon="4.95922">
        <ele>200.09</ele>
        <time>2020-12-20T13:10:05Z</time>
      </trkpt>
      <trkpt lat="49.61791" lon="4.95912">
        <ele>201.53</ele>
        <time>2020-12-20T13:10:26Z</time>
      </trkpt>
      <trkpt lat="49.61789" lon="4.9591">
        <ele>201.05</ele>
        <time>2020-12-20T13:10:28Z</time>
      </trkpt>
      <trkpt lat="49.6177" lon="4.95899">
        <ele>200.57</ele>
        <time>2020-12-20T13:10:47Z</time>
      </trkpt>
      <trkpt lat="49.61749" lon="4.95887">
        <ele>198.65</ele>
        <time>2020-12-20T13:11:06Z</time>
      </trkpt>
      <trkpt lat="49.61746" lon="4.9588">
        <ele>201.53</ele>
        <time>2020-12-20T13:11:24Z</time>
      </trkpt>
      <trkpt lat="49.61741" lon="4.95873">
        <ele>200.57</ele>
        <time>2020-12-20T13:11:44Z</time>
      </trkpt>
      <trkpt lat="49.61724" lon="4.95858">
        <ele>201.05</ele>
        <time>2020-12-20T13:12:02Z</time>
      </trkpt>
      <trkpt lat="49.61709" lon="4.95843">
        <ele>203.46</ele>
        <time>2020-12-20T13:12:20Z</time>
      </trkpt>
      <trkpt lat="49.61699" lon="4.95829">
        <ele>205.86</ele>
        <time>2020-12-20T13:12:35Z</time>
      </trkpt>
      <trkpt lat="49.61688" lon="4.9581">
        <ele>210.67</ele>
        <time>2020-12-20T13:12:52Z</time>
      </trkpt>
      <trkpt lat="49.61687" lon="4.95808">
        <ele>211.15</ele>
        <time>2020-12-20T13:12:54Z</time>
      </trkpt>
      <trkpt lat="49.61682" lon="4.958">
        <ele>212.59</ele>
        <time>2020-12-20T13:13:01Z</time>
      </trkpt>
      <trkpt lat="49.6167" lon="4.95779">
        <ele>217.4</ele>
        <time>2020-12-20T13:13:18Z</time>
      </trkpt>
      <trkpt lat="49.61657" lon="4.95753">
        <ele>220.28</ele>
        <time>2020-12-20T13:13:38Z</time>
      </trkpt>
      <trkpt lat="49.61655" lon="4.95749">
        <ele>220.76</ele>
        <time>2020-12-20T13:13:40Z</time>
      </trkpt>
      <trkpt lat="49.61652" lon="4.95744">
        <ele>221.72</ele>
        <time>2020-12-20T13:13:44Z</time>
      </trkpt>
      <trkpt lat="49.61643" lon="4.95716">
        <ele>224.61</ele>
        <time>2020-12-20T13:14:02Z</time>
      </trkpt>
      <trkpt lat="49.61636" lon="4.95688">
        <ele>226.05</ele>
        <time>2020-12-20T13:14:20Z</time>
      </trkpt>
      <trkpt lat="49.6163" lon="4.95661">
        <ele>228.93</ele>
        <time>2020-12-20T13:14:37Z</time>
      </trkpt>
      <trkpt lat="49.61627" lon="4.95632">
        <ele>231.33</ele>
        <time>2020-12-20T13:14:55Z</time>
      </trkpt>
      <trkpt lat="49.61629" lon="4.95605">
        <ele>233.74</ele>
        <time>2020-12-20T13:15:12Z</time>
      </trkpt>
      <trkpt lat="49.6163" lon="4.95583">
        <ele>233.74</ele>
        <time>2020-12-20T13:15:26Z</time>
      </trkpt>
      <trkpt lat="49.61632" lon="4.95559">
        <ele>234.7</ele>
        <time>2020-12-20T13:15:42Z</time>
      </trkpt>
      <trkpt lat="49.61635" lon="4.95529">
        <ele>237.1</ele>
        <time>2020-12-20T13:16:00Z</time>
      </trkpt>
      <trkpt lat="49.61636" lon="4.95494">
        <ele>239.02</ele>
        <time>2020-12-20T13:16:22Z</time>
      </trkpt>
      <trkpt lat="49.61635" lon="4.95464">
        <ele>240.47</ele>
        <time>2020-12-20T13:16:41Z</time>
      </trkpt>
      <trkpt lat="49.61634" lon="4.95451">
        <ele>241.91</ele>
        <time>2020-12-20T13:16:59Z</time>
      </trkpt>
      <trkpt lat="49.61635" lon="4.9545">
        <ele>242.39</ele>
        <time>2020-12-20T13:17:25Z</time>
      </trkpt>
      <trkpt lat="49.61635" lon="4.95431">
        <ele>244.31</ele>
        <time>2020-12-20T13:17:45Z</time>
      </trkpt>
      <trkpt lat="49.61634" lon="4.95398">
        <ele>246.72</ele>
        <time>2020-12-20T13:18:04Z</time>
      </trkpt>
      <trkpt lat="49.61634" lon="4.95384">
        <ele>247.68</ele>
        <time>2020-12-20T13:18:13Z</time>
      </trkpt>
      <trkpt lat="49.61631" lon="4.9535">
        <ele>249.6</ele>
        <time>2020-12-20T13:18:32Z</time>
      </trkpt>
      <trkpt lat="49.61625" lon="4.95319">
        <ele>250.08</ele>
        <time>2020-12-20T13:18:52Z</time>
      </trkpt>
      <trkpt lat="49.61616" lon="4.95286">
        <ele>249.12</ele>
        <time>2020-12-20T13:19:13Z</time>
      </trkpt>
      <trkpt lat="49.61609" lon="4.95254">
        <ele>249.6</ele>
        <time>2020-12-20T13:19:33Z</time>
      </trkpt>
      <trkpt lat="49.61599" lon="4.95217">
        <ele>250.56</ele>
        <time>2020-12-20T13:19:56Z</time>
      </trkpt>
      <trkpt lat="49.61592" lon="4.95188">
        <ele>251.52</ele>
        <time>2020-12-20T13:20:14Z</time>
      </trkpt>
      <trkpt lat="49.61588" lon="4.95161">
        <ele>252.96</ele>
        <time>2020-12-20T13:20:31Z</time>
      </trkpt>
      <trkpt lat="49.61579" lon="4.95132">
        <ele>252.96</ele>
        <time>2020-12-20T13:20:50Z</time>
      </trkpt>
      <trkpt lat="49.61578" lon="4.95129">
        <ele>252.96</ele>
        <time>2020-12-20T13:20:52Z</time>
      </trkpt>
      <trkpt lat="49.61572" lon="4.95112">
        <ele>252</ele>
        <time>2020-12-20T13:21:07Z</time>
      </trkpt>
      <trkpt lat="49.61563" lon="4.95085">
        <ele>249.6</ele>
        <time>2020-12-20T13:21:26Z</time>
      </trkpt>
      <trkpt lat="49.61556" lon="4.95063">
        <ele>246.23</ele>
        <time>2020-12-20T13:21:41Z</time>
      </trkpt>
      <trkpt lat="49.61548" lon="4.95039">
        <ele>243.83</ele>
        <time>2020-12-20T13:21:58Z</time>
      </trkpt>
      <trkpt lat="49.61538" lon="4.95016">
        <ele>240.47</ele>
        <time>2020-12-20T13:22:17Z</time>
      </trkpt>
      <trkpt lat="49.61535" lon="4.9501">
        <ele>239.99</ele>
        <time>2020-12-20T13:22:21Z</time>
      </trkpt>
      <trkpt lat="49.61527" lon="4.94989">
        <ele>236.14</ele>
        <time>2020-12-20T13:22:37Z</time>
      </trkpt>
      <trkpt lat="49.61517" lon="4.94973">
        <ele>231.81</ele>
        <time>2020-12-20T13:22:51Z</time>
      </trkpt>
      <trkpt lat="49.61506" lon="4.94954">
        <ele>230.85</ele>
        <time>2020-12-20T13:23:07Z</time>
      </trkpt>
      <trkpt lat="49.6149" lon="4.94935">
        <ele>234.7</ele>
        <time>2020-12-20T13:23:23Z</time>
      </trkpt>
      <trkpt lat="49.61475" lon="4.94918">
        <ele>236.62</ele>
        <time>2020-12-20T13:23:39Z</time>
      </trkpt>
      <trkpt lat="49.61459" lon="4.94896">
        <ele>240.95</ele>
        <time>2020-12-20T13:23:57Z</time>
      </trkpt>
      <trkpt lat="49.61447" lon="4.94877">
        <ele>240.47</ele>
        <time>2020-12-20T13:24:14Z</time>
      </trkpt>
      <trkpt lat="49.61436" lon="4.94855">
        <ele>239.51</ele>
        <time>2020-12-20T13:24:31Z</time>
      </trkpt>
      <trkpt lat="49.61416" lon="4.94833">
        <ele>244.79</ele>
        <time>2020-12-20T13:24:52Z</time>
      </trkpt>
      <trkpt lat="49.61398" lon="4.94809">
        <ele>249.6</ele>
        <time>2020-12-20T13:25:10Z</time>
      </trkpt>
      <trkpt lat="49.61397" lon="4.94807">
        <ele>250.08</ele>
        <time>2020-12-20T13:25:12Z</time>
      </trkpt>
      <trkpt lat="49.61391" lon="4.94796">
        <ele>252</ele>
        <time>2020-12-20T13:25:18Z</time>
      </trkpt>
      <trkpt lat="49.61382" lon="4.94782">
        <ele>253.44</ele>
        <time>2020-12-20T13:25:28Z</time>
      </trkpt>
      <trkpt lat="49.61366" lon="4.94756">
        <ele>257.77</ele>
        <time>2020-12-20T13:25:48Z</time>
      </trkpt>
      <trkpt lat="49.6135" lon="4.94731">
        <ele>261.14</ele>
        <time>2020-12-20T13:26:06Z</time>
      </trkpt>
      <trkpt lat="49.61338" lon="4.94716">
        <ele>264.02</ele>
        <time>2020-12-20T13:26:24Z</time>
      </trkpt>
      <trkpt lat="49.61324" lon="4.94698">
        <ele>266.42</ele>
        <time>2020-12-20T13:26:39Z</time>
      </trkpt>
      <trkpt lat="49.61314" lon="4.94683">
        <ele>269.31</ele>
        <time>2020-12-20T13:26:55Z</time>
      </trkpt>
      <trkpt lat="49.61302" lon="4.94673">
        <ele>272.19</ele>
        <time>2020-12-20T13:27:13Z</time>
      </trkpt>
      <trkpt lat="49.61295" lon="4.94665">
        <ele>272.67</ele>
        <time>2020-12-20T13:27:31Z</time>
      </trkpt>
      <trkpt lat="49.61285" lon="4.94654">
        <ele>272.19</ele>
        <time>2020-12-20T13:27:47Z</time>
      </trkpt>
      <trkpt lat="49.61269" lon="4.9464">
        <ele>270.27</ele>
        <time>2020-12-20T13:28:02Z</time>
      </trkpt>
      <trkpt lat="49.6125" lon="4.94621">
        <ele>267.86</ele>
        <time>2020-12-20T13:28:17Z</time>
      </trkpt>
      <trkpt lat="49.61222" lon="4.94588">
        <ele>270.27</ele>
        <time>2020-12-20T13:28:40Z</time>
      </trkpt>
      <trkpt lat="49.61205" lon="4.94567">
        <ele>270.75</ele>
        <time>2020-12-20T13:28:59Z</time>
      </trkpt>
      <trkpt lat="49.61193" lon="4.94543">
        <ele>273.15</ele>
        <time>2020-12-20T13:29:16Z</time>
      </trkpt>
      <trkpt lat="49.61176" lon="4.94516">
        <ele>274.11</ele>
        <time>2020-12-20T13:29:37Z</time>
      </trkpt>
      <trkpt lat="49.61162" lon="4.94498">
        <ele>275.07</ele>
        <time>2020-12-20T13:29:54Z</time>
      </trkpt>
      <trkpt lat="49.61145" lon="4.94478">
        <ele>276.04</ele>
        <time>2020-12-20T13:30:14Z</time>
      </trkpt>
      <trkpt lat="49.61131" lon="4.94461">
        <ele>276.52</ele>
        <time>2020-12-20T13:30:30Z</time>
      </trkpt>
      <trkpt lat="49.6112" lon="4.94445">
        <ele>278.44</ele>
        <time>2020-12-20T13:30:45Z</time>
      </trkpt>
      <trkpt lat="49.61105" lon="4.94429">
        <ele>277.48</ele>
        <time>2020-12-20T13:31:02Z</time>
      </trkpt>
      <trkpt lat="49.61089" lon="4.94409">
        <ele>277.96</ele>
        <time>2020-12-20T13:31:20Z</time>
      </trkpt>
      <trkpt lat="49.61071" lon="4.94386">
        <ele>279.88</ele>
        <time>2020-12-20T13:31:39Z</time>
      </trkpt>
      <trkpt lat="49.61053" lon="4.94366">
        <ele>275.56</ele>
        <time>2020-12-20T13:31:59Z</time>
      </trkpt>
      <trkpt lat="49.61036" lon="4.94342">
        <ele>273.15</ele>
        <time>2020-12-20T13:32:19Z</time>
      </trkpt>
      <trkpt lat="49.61017" lon="4.94317">
        <ele>273.63</ele>
        <time>2020-12-20T13:32:41Z</time>
      </trkpt>
      <trkpt lat="49.61003" lon="4.94298">
        <ele>276.52</ele>
        <time>2020-12-20T13:32:58Z</time>
      </trkpt>
      <trkpt lat="49.60989" lon="4.9427">
        <ele>280.36</ele>
        <time>2020-12-20T13:33:18Z</time>
      </trkpt>
      <trkpt lat="49.60977" lon="4.94245">
        <ele>282.28</ele>
        <time>2020-12-20T13:33:37Z</time>
      </trkpt>
      <trkpt lat="49.60967" lon="4.94218">
        <ele>282.77</ele>
        <time>2020-12-20T13:33:55Z</time>
      </trkpt>
      <trkpt lat="49.60958" lon="4.94193">
        <ele>281.8</ele>
        <time>2020-12-20T13:34:12Z</time>
      </trkpt>
      <trkpt lat="49.60947" lon="4.94163">
        <ele>282.77</ele>
        <time>2020-12-20T13:34:31Z</time>
      </trkpt>
      <trkpt lat="49.60935" lon="4.94135">
        <ele>283.25</ele>
        <time>2020-12-20T13:34:51Z</time>
      </trkpt>
      <trkpt lat="49.60921" lon="4.94106">
        <ele>284.69</ele>
        <time>2020-12-20T13:35:12Z</time>
      </trkpt>
      <trkpt lat="49.60919" lon="4.94103">
        <ele>285.17</ele>
        <time>2020-12-20T13:35:15Z</time>
      </trkpt>
      <trkpt lat="49.60906" lon="4.94071">
        <ele>286.13</ele>
        <time>2020-12-20T13:35:37Z</time>
      </trkpt>
      <trkpt lat="49.60894" lon="4.94042">
        <ele>287.57</ele>
        <time>2020-12-20T13:35:58Z</time>
      </trkpt>
      <trkpt lat="49.60877" lon="4.94004">
        <ele>289.01</ele>
        <time>2020-12-20T13:36:24Z</time>
      </trkpt>
      <trkpt lat="49.60864" lon="4.93973">
        <ele>289.01</ele>
        <time>2020-12-20T13:36:46Z</time>
      </trkpt>
      <trkpt lat="49.6085" lon="4.93943">
        <ele>289.97</ele>
        <time>2020-12-20T13:37:07Z</time>
      </trkpt>
      <trkpt lat="49.60836" lon="4.93915">
        <ele>290.94</ele>
        <time>2020-12-20T13:37:28Z</time>
      </trkpt>
      <trkpt lat="49.60822" lon="4.93889">
        <ele>291.42</ele>
        <time>2020-12-20T13:37:47Z</time>
      </trkpt>
      <trkpt lat="49.60809" lon="4.93863">
        <ele>292.38</ele>
        <time>2020-12-20T13:38:07Z</time>
      </trkpt>
      <trkpt lat="49.60793" lon="4.93832">
        <ele>292.38</ele>
        <time>2020-12-20T13:38:29Z</time>
      </trkpt>
      <trkpt lat="49.60785" lon="4.9382">
        <ele>293.34</ele>
        <time>2020-12-20T13:38:44Z</time>
      </trkpt>
      <trkpt lat="49.6077" lon="4.93792">
        <ele>291.9</ele>
        <time>2020-12-20T13:39:05Z</time>
      </trkpt>
      <trkpt lat="49.60763" lon="4.93777">
        <ele>292.86</ele>
        <time>2020-12-20T13:39:15Z</time>
      </trkpt>
      <trkpt lat="49.60747" lon="4.93753">
        <ele>292.86</ele>
        <time>2020-12-20T13:39:36Z</time>
      </trkpt>
      <trkpt lat="49.60729" lon="4.93726">
        <ele>292.86</ele>
        <time>2020-12-20T13:39:59Z</time>
      </trkpt>
      <trkpt lat="49.60708" lon="4.93696">
        <ele>292.38</ele>
        <time>2020-12-20T13:40:25Z</time>
      </trkpt>
      <trkpt lat="49.6069" lon="4.9367">
        <ele>292.38</ele>
        <time>2020-12-20T13:40:47Z</time>
      </trkpt>
      <trkpt lat="49.60675" lon="4.93646">
        <ele>293.82</ele>
        <time>2020-12-20T13:41:06Z</time>
      </trkpt>
      <trkpt lat="49.60659" lon="4.9363">
        <ele>295.26</ele>
        <time>2020-12-20T13:41:23Z</time>
      </trkpt>
      <trkpt lat="49.60653" lon="4.93648">
        <ele>295.26</ele>
        <time>2020-12-20T13:41:36Z</time>
      </trkpt>
      <trkpt lat="49.60653" lon="4.93666">
        <ele>297.18</ele>
        <time>2020-12-20T13:41:47Z</time>
      </trkpt>
      <trkpt lat="49.60652" lon="4.93698">
        <ele>301.51</ele>
        <time>2020-12-20T13:42:06Z</time>
      </trkpt>
      <trkpt lat="49.60651" lon="4.93726">
        <ele>304.88</ele>
        <time>2020-12-20T13:42:23Z</time>
      </trkpt>
      <trkpt lat="49.60646" lon="4.93762">
        <ele>309.2</ele>
        <time>2020-12-20T13:42:43Z</time>
      </trkpt>
      <trkpt lat="49.60642" lon="4.93792">
        <ele>309.68</ele>
        <time>2020-12-20T13:43:01Z</time>
      </trkpt>
      <trkpt lat="49.60636" lon="4.93827">
        <ele>311.12</ele>
        <time>2020-12-20T13:43:22Z</time>
      </trkpt>
      <trkpt lat="49.60633" lon="4.93842">
        <ele>310.64</ele>
        <time>2020-12-20T13:43:36Z</time>
      </trkpt>
      <trkpt lat="49.60626" lon="4.93876">
        <ele>310.16</ele>
        <time>2020-12-20T13:43:57Z</time>
      </trkpt>
      <trkpt lat="49.6062" lon="4.93909">
        <ele>310.16</ele>
        <time>2020-12-20T13:44:18Z</time>
      </trkpt>
      <trkpt lat="49.60612" lon="4.93946">
        <ele>309.68</ele>
        <time>2020-12-20T13:44:41Z</time>
      </trkpt>
      <trkpt lat="49.60603" lon="4.93978">
        <ele>308.24</ele>
        <time>2020-12-20T13:45:01Z</time>
      </trkpt>
      <trkpt lat="49.60593" lon="4.94008">
        <ele>306.8</ele>
        <time>2020-12-20T13:45:23Z</time>
      </trkpt>
      <trkpt lat="49.60581" lon="4.94036">
        <ele>305.84</ele>
        <time>2020-12-20T13:45:43Z</time>
      </trkpt>
      <trkpt lat="49.60571" lon="4.9406">
        <ele>305.36</ele>
        <time>2020-12-20T13:46:01Z</time>
      </trkpt>
      <trkpt lat="49.60559" lon="4.94093">
        <ele>303.91</ele>
        <time>2020-12-20T13:46:25Z</time>
      </trkpt>
      <trkpt lat="49.60547" lon="4.94122">
        <ele>304.88</ele>
        <time>2020-12-20T13:46:45Z</time>
      </trkpt>
      <trkpt lat="49.60535" lon="4.94149">
        <ele>303.91</ele>
        <time>2020-12-20T13:47:04Z</time>
      </trkpt>
      <trkpt lat="49.60522" lon="4.94179">
        <ele>301.99</ele>
        <time>2020-12-20T13:47:26Z</time>
      </trkpt>
      <trkpt lat="49.60511" lon="4.94208">
        <ele>301.51</ele>
        <time>2020-12-20T13:47:45Z</time>
      </trkpt>
      <trkpt lat="49.60499" lon="4.94233">
        <ele>300.55</ele>
        <time>2020-12-20T13:48:03Z</time>
      </trkpt>
      <trkpt lat="49.60485" lon="4.94263">
        <ele>300.55</ele>
        <time>2020-12-20T13:48:26Z</time>
      </trkpt>
      <trkpt lat="49.60473" lon="4.94283">
        <ele>300.07</ele>
        <time>2020-12-20T13:48:42Z</time>
      </trkpt>
      <trkpt lat="49.60466" lon="4.94296">
        <ele>300.07</ele>
        <time>2020-12-20T13:48:54Z</time>
      </trkpt>
      <trkpt lat="49.60451" lon="4.9432">
        <ele>299.11</ele>
        <time>2020-12-20T13:49:14Z</time>
      </trkpt>
      <trkpt lat="49.60438" lon="4.94344">
        <ele>297.67</ele>
        <time>2020-12-20T13:49:33Z</time>
      </trkpt>
      <trkpt lat="49.60424" lon="4.94369">
        <ele>296.7</ele>
        <time>2020-12-20T13:49:54Z</time>
      </trkpt>
      <trkpt lat="49.6041" lon="4.94396">
        <ele>295.26</ele>
        <time>2020-12-20T13:50:15Z</time>
      </trkpt>
      <trkpt lat="49.60393" lon="4.94421">
        <ele>293.82</ele>
        <time>2020-12-20T13:50:38Z</time>
      </trkpt>
      <trkpt lat="49.60376" lon="4.9444">
        <ele>292.86</ele>
        <time>2020-12-20T13:51:01Z</time>
      </trkpt>
      <trkpt lat="49.60374" lon="4.94443">
        <ele>292.38</ele>
        <time>2020-12-20T13:51:09Z</time>
      </trkpt>
      <trkpt lat="49.60358" lon="4.94454">
        <ele>291.9</ele>
        <time>2020-12-20T13:51:26Z</time>
      </trkpt>
      <trkpt lat="49.60353" lon="4.94456">
        <ele>291.42</ele>
        <time>2020-12-20T13:51:30Z</time>
      </trkpt>
      <trkpt lat="49.60331" lon="4.94468">
        <ele>290.46</ele>
        <time>2020-12-20T13:51:52Z</time>
      </trkpt>
      <trkpt lat="49.60313" lon="4.94478">
        <ele>288.53</ele>
        <time>2020-12-20T13:52:11Z</time>
      </trkpt>
      <trkpt lat="49.60292" lon="4.94484">
        <ele>285.65</ele>
        <time>2020-12-20T13:52:31Z</time>
      </trkpt>
      <trkpt lat="49.60271" lon="4.94494">
        <ele>282.28</ele>
        <time>2020-12-20T13:52:52Z</time>
      </trkpt>
      <trkpt lat="49.60259" lon="4.94502">
        <ele>279.88</ele>
        <time>2020-12-20T13:53:09Z</time>
      </trkpt>
      <trkpt lat="49.6026" lon="4.94502">
        <ele>279.4</ele>
        <time>2020-12-20T13:53:27Z</time>
      </trkpt>
      <trkpt lat="49.60254" lon="4.94506">
        <ele>277</ele>
        <time>2020-12-20T13:53:52Z</time>
      </trkpt>
      <trkpt lat="49.60236" lon="4.94522">
        <ele>274.11</ele>
        <time>2020-12-20T13:54:12Z</time>
      </trkpt>
      <trkpt lat="49.60219" lon="4.94547">
        <ele>272.19</ele>
        <time>2020-12-20T13:54:34Z</time>
      </trkpt>
      <trkpt lat="49.60213" lon="4.94581">
        <ele>271.71</ele>
        <time>2020-12-20T13:54:55Z</time>
      </trkpt>
      <trkpt lat="49.60208" lon="4.94614">
        <ele>269.79</ele>
        <time>2020-12-20T13:55:15Z</time>
      </trkpt>
      <trkpt lat="49.60208" lon="4.94617">
        <ele>268.83</ele>
        <time>2020-12-20T13:55:30Z</time>
      </trkpt>
      <trkpt lat="49.60208" lon="4.94643">
        <ele>265.46</ele>
        <time>2020-12-20T13:55:49Z</time>
      </trkpt>
      <trkpt lat="49.60202" lon="4.94677">
        <ele>264.02</ele>
        <time>2020-12-20T13:56:11Z</time>
      </trkpt>
      <trkpt lat="49.60199" lon="4.94708">
        <ele>263.06</ele>
        <time>2020-12-20T13:56:31Z</time>
      </trkpt>
      <trkpt lat="49.6019" lon="4.94737">
        <ele>257.29</ele>
        <time>2020-12-20T13:56:52Z</time>
      </trkpt>
      <trkpt lat="49.60184" lon="4.94777">
        <ele>257.29</ele>
        <time>2020-12-20T13:57:14Z</time>
      </trkpt>
      <trkpt lat="49.60178" lon="4.94801">
        <ele>253.93</ele>
        <time>2020-12-20T13:57:31Z</time>
      </trkpt>
      <trkpt lat="49.60174" lon="4.94828">
        <ele>252.96</ele>
        <time>2020-12-20T13:57:48Z</time>
      </trkpt>
      <trkpt lat="49.60169" lon="4.94855">
        <ele>251.04</ele>
        <time>2020-12-20T13:58:05Z</time>
      </trkpt>
      <trkpt lat="49.60165" lon="4.94881">
        <ele>249.12</ele>
        <time>2020-12-20T13:58:20Z</time>
      </trkpt>
      <trkpt lat="49.6016" lon="4.94908">
        <ele>250.56</ele>
        <time>2020-12-20T13:58:37Z</time>
      </trkpt>
      <trkpt lat="49.6015" lon="4.94943">
        <ele>253.93</ele>
        <time>2020-12-20T13:59:00Z</time>
      </trkpt>
      <trkpt lat="49.60148" lon="4.94966">
        <ele>250.56</ele>
        <time>2020-12-20T13:59:18Z</time>
      </trkpt>
      <trkpt lat="49.60145" lon="4.94978">
        <ele>252</ele>
        <time>2020-12-20T13:59:35Z</time>
      </trkpt>
      <trkpt lat="49.60135" lon="4.95012">
        <ele>250.56</ele>
        <time>2020-12-20T13:59:55Z</time>
      </trkpt>
      <trkpt lat="49.60132" lon="4.9505">
        <ele>249.6</ele>
        <time>2020-12-20T14:00:15Z</time>
      </trkpt>
      <trkpt lat="49.60121" lon="4.95087">
        <ele>249.12</ele>
        <time>2020-12-20T14:00:35Z</time>
      </trkpt>
      <trkpt lat="49.60108" lon="4.95125">
        <ele>250.08</ele>
        <time>2020-12-20T14:00:55Z</time>
      </trkpt>
      <trkpt lat="49.60097" lon="4.9515">
        <ele>250.56</ele>
        <time>2020-12-20T14:01:14Z</time>
      </trkpt>
      <trkpt lat="49.60092" lon="4.95157">
        <ele>250.56</ele>
        <time>2020-12-20T14:01:20Z</time>
      </trkpt>
      <trkpt lat="49.60076" lon="4.95175">
        <ele>250.08</ele>
        <time>2020-12-20T14:01:38Z</time>
      </trkpt>
      <trkpt lat="49.60066" lon="4.95185">
        <ele>250.08</ele>
        <time>2020-12-20T14:01:55Z</time>
      </trkpt>
      <trkpt lat="49.60067" lon="4.95186">
        <ele>250.56</ele>
        <time>2020-12-20T14:02:21Z</time>
      </trkpt>
      <trkpt lat="49.60067" lon="4.95186">
        <ele>250.56</ele>
        <time>2020-12-20T14:02:43Z</time>
      </trkpt>
      <trkpt lat="49.60065" lon="4.95186">
        <ele>250.56</ele>
        <time>2020-12-20T14:03:10Z</time>
      </trkpt>
      <trkpt lat="49.60065" lon="4.95185">
        <ele>251.04</ele>
        <time>2020-12-20T14:03:28Z</time>
      </trkpt>
      <trkpt lat="49.60066" lon="4.95185">
        <ele>251.52</ele>
        <time>2020-12-20T14:03:33Z</time>
      </trkpt>
      <trkpt lat="49.60068" lon="4.95181">
        <ele>252.48</ele>
        <time>2020-12-20T14:03:42Z</time>
      </trkpt>
      <trkpt lat="49.60068" lon="4.95178">
        <ele>252.48</ele>
        <time>2020-12-20T14:04:04Z</time>
      </trkpt>
      <trkpt lat="49.60069" lon="4.95179">
        <ele>253.44</ele>
        <time>2020-12-20T14:04:29Z</time>
      </trkpt>
      <trkpt lat="49.60069" lon="4.95179">
        <ele>253.93</ele>
        <time>2020-12-20T14:05:06Z</time>
      </trkpt>
      <trkpt lat="49.60069" lon="4.95179">
        <ele>253.93</ele>
        <time>2020-12-20T14:05:31Z</time>
      </trkpt>
      <trkpt lat="49.60069" lon="4.95179">
        <ele>253.93</ele>
        <time>2020-12-20T14:05:54Z</time>
      </trkpt>
      <trkpt lat="49.60071" lon="4.95182">
        <ele>252.96</ele>
        <time>2020-12-20T14:06:17Z</time>
      </trkpt>
      <trkpt lat="49.60071" lon="4.95181">
        <ele>252.96</ele>
        <time>2020-12-20T14:06:44Z</time>
      </trkpt>
      <trkpt lat="49.60065" lon="4.95182">
        <ele>251.04</ele>
        <time>2020-12-20T14:07:07Z</time>
      </trkpt>
      <trkpt lat="49.60073" lon="4.95188">
        <ele>247.68</ele>
        <time>2020-12-20T14:07:26Z</time>
      </trkpt>
      <trkpt lat="49.60072" lon="4.95182">
        <ele>245.27</ele>
        <time>2020-12-20T14:07:49Z</time>
      </trkpt>
      <trkpt lat="49.60069" lon="4.95182">
        <ele>243.83</ele>
        <time>2020-12-20T14:08:14Z</time>
      </trkpt>
      <trkpt lat="49.60069" lon="4.95168">
        <ele>241.91</ele>
        <time>2020-12-20T14:08:33Z</time>
      </trkpt>
      <trkpt lat="49.60063" lon="4.95169">
        <ele>243.83</ele>
        <time>2020-12-20T14:08:56Z</time>
      </trkpt>
      <trkpt lat="49.60062" lon="4.95172">
        <ele>245.27</ele>
        <time>2020-12-20T14:09:21Z</time>
      </trkpt>
      <trkpt lat="49.60063" lon="4.95171">
        <ele>248.64</ele>
        <time>2020-12-20T14:09:50Z</time>
      </trkpt>
      <trkpt lat="49.60062" lon="4.95173">
        <ele>252.48</ele>
        <time>2020-12-20T14:10:18Z</time>
      </trkpt>
      <trkpt lat="49.6006" lon="4.95172">
        <ele>252</ele>
        <time>2020-12-20T14:10:38Z</time>
      </trkpt>
      <trkpt lat="49.60062" lon="4.95173">
        <ele>252.48</ele>
        <time>2020-12-20T14:10:46Z</time>
      </trkpt>
      <trkpt lat="49.6006" lon="4.95171">
        <ele>252.48</ele>
        <time>2020-12-20T14:11:07Z</time>
      </trkpt>
      <trkpt lat="49.60068" lon="4.95177">
        <ele>258.25</ele>
        <time>2020-12-20T14:11:20Z</time>
      </trkpt>
      <trkpt lat="49.60068" lon="4.95181">
        <ele>253.93</ele>
        <time>2020-12-20T14:11:35Z</time>
      </trkpt>
      <trkpt lat="49.60069" lon="4.95183">
        <ele>251.04</ele>
        <time>2020-12-20T14:12:11Z</time>
      </trkpt>
      <trkpt lat="49.60069" lon="4.95184">
        <ele>251.52</ele>
        <time>2020-12-20T14:12:29Z</time>
      </trkpt>
      <trkpt lat="49.60068" lon="4.95185">
        <ele>251.04</ele>
        <time>2020-12-20T14:12:51Z</time>
      </trkpt>
      <trkpt lat="49.60067" lon="4.95185">
        <ele>252</ele>
        <time>2020-12-20T14:13:04Z</time>
      </trkpt>
      <trkpt lat="49.60067" lon="4.95186">
        <ele>252</ele>
        <time>2020-12-20T14:13:23Z</time>
      </trkpt>
      <trkpt lat="49.60068" lon="4.95186">
        <ele>252.96</ele>
        <time>2020-12-20T14:13:51Z</time>
      </trkpt>
      <trkpt lat="49.60068" lon="4.95185">
        <ele>251.52</ele>
        <time>2020-12-20T14:14:15Z</time>
      </trkpt>
      <trkpt lat="49.60069" lon="4.95185">
        <ele>252</ele>
        <time>2020-12-20T14:14:41Z</time>
      </trkpt>
      <trkpt lat="49.60069" lon="4.95185">
        <ele>252.48</ele>
        <time>2020-12-20T14:15:11Z</time>
      </trkpt>
      <trkpt lat="49.60068" lon="4.95184">
        <ele>252.48</ele>
        <time>2020-12-20T14:15:49Z</time>
      </trkpt>
      <trkpt lat="49.60068" lon="4.95184">
        <ele>252</ele>
        <time>2020-12-20T14:16:30Z</time>
      </trkpt>
      <trkpt lat="49.60068" lon="4.95183">
        <ele>251.52</ele>
        <time>2020-12-20T14:17:07Z</time>
      </trkpt>
      <trkpt lat="49.60069" lon="4.95184">
        <ele>251.52</ele>
        <time>2020-12-20T14:17:36Z</time>
      </trkpt>
      <trkpt lat="49.60069" lon="4.95186">
        <ele>251.52</ele>
        <time>2020-12-20T14:18:06Z</time>
      </trkpt>
      <trkpt lat="49.60068" lon="4.95186">
        <ele>251.04</ele>
        <time>2020-12-20T14:18:28Z</time>
      </trkpt>
      <trkpt lat="49.60052" lon="4.95191">
        <ele>248.16</ele>
        <time>2020-12-20T14:18:45Z</time>
      </trkpt>
      <trkpt lat="49.60036" lon="4.95191">
        <ele>247.2</ele>
        <time>2020-12-20T14:19:06Z</time>
      </trkpt>
      <trkpt lat="49.60011" lon="4.95188">
        <ele>246.72</ele>
        <time>2020-12-20T14:19:24Z</time>
      </trkpt>
      <trkpt lat="49.59994" lon="4.95188">
        <ele>249.12</ele>
        <time>2020-12-20T14:19:42Z</time>
      </trkpt>
      <trkpt lat="49.59979" lon="4.95183">
        <ele>247.68</ele>
        <time>2020-12-20T14:20:00Z</time>
      </trkpt>
      <trkpt lat="49.59956" lon="4.95177">
        <ele>244.31</ele>
        <time>2020-12-20T14:20:24Z</time>
      </trkpt>
      <trkpt lat="49.59932" lon="4.9517">
        <ele>242.39</ele>
        <time>2020-12-20T14:20:46Z</time>
      </trkpt>
      <trkpt lat="49.59912" lon="4.95167">
        <ele>242.87</ele>
        <time>2020-12-20T14:21:05Z</time>
      </trkpt>
      <trkpt lat="49.59893" lon="4.95169">
        <ele>241.91</ele>
        <time>2020-12-20T14:21:28Z</time>
      </trkpt>
      <trkpt lat="49.59866" lon="4.95169">
        <ele>239.51</ele>
        <time>2020-12-20T14:21:48Z</time>
      </trkpt>
      <trkpt lat="49.59851" lon="4.9518">
        <ele>238.54</ele>
        <time>2020-12-20T14:22:06Z</time>
      </trkpt>
      <trkpt lat="49.59832" lon="4.95191">
        <ele>235.66</ele>
        <time>2020-12-20T14:22:26Z</time>
      </trkpt>
      <trkpt lat="49.59812" lon="4.95208">
        <ele>235.66</ele>
        <time>2020-12-20T14:22:46Z</time>
      </trkpt>
      <trkpt lat="49.59796" lon="4.95222">
        <ele>233.26</ele>
        <time>2020-12-20T14:23:05Z</time>
      </trkpt>
      <trkpt lat="49.59778" lon="4.95238">
        <ele>231.81</ele>
        <time>2020-12-20T14:23:24Z</time>
      </trkpt>
      <trkpt lat="49.5976" lon="4.95254">
        <ele>228.45</ele>
        <time>2020-12-20T14:23:46Z</time>
      </trkpt>
      <trkpt lat="49.59741" lon="4.95273">
        <ele>225.57</ele>
        <time>2020-12-20T14:24:08Z</time>
      </trkpt>
      <trkpt lat="49.59727" lon="4.95283">
        <ele>221.24</ele>
        <time>2020-12-20T14:24:24Z</time>
      </trkpt>
      <trkpt lat="49.59708" lon="4.95296">
        <ele>220.76</ele>
        <time>2020-12-20T14:24:43Z</time>
      </trkpt>
      <trkpt lat="49.59697" lon="4.95305">
        <ele>219.8</ele>
        <time>2020-12-20T14:25:01Z</time>
      </trkpt>
      <trkpt lat="49.59676" lon="4.95319">
        <ele>217.88</ele>
        <time>2020-12-20T14:25:24Z</time>
      </trkpt>
      <trkpt lat="49.59656" lon="4.95336">
        <ele>216.91</ele>
        <time>2020-12-20T14:25:44Z</time>
      </trkpt>
      <trkpt lat="49.59635" lon="4.95345">
        <ele>215.47</ele>
        <time>2020-12-20T14:26:04Z</time>
      </trkpt>
      <trkpt lat="49.59615" lon="4.95358">
        <ele>213.07</ele>
        <time>2020-12-20T14:26:24Z</time>
      </trkpt>
      <trkpt lat="49.59597" lon="4.95363">
        <ele>211.63</ele>
        <time>2020-12-20T14:26:41Z</time>
      </trkpt>
      <trkpt lat="49.59576" lon="4.95376">
        <ele>208.74</ele>
        <time>2020-12-20T14:27:02Z</time>
      </trkpt>
      <trkpt lat="49.59556" lon="4.95388">
        <ele>208.74</ele>
        <time>2020-12-20T14:27:22Z</time>
      </trkpt>
      <trkpt lat="49.59542" lon="4.95398">
        <ele>207.3</ele>
        <time>2020-12-20T14:27:39Z</time>
      </trkpt>
      <trkpt lat="49.5954" lon="4.95417">
        <ele>207.78</ele>
        <time>2020-12-20T14:27:53Z</time>
      </trkpt>
      <trkpt lat="49.59561" lon="4.95429">
        <ele>208.26</ele>
        <time>2020-12-20T14:28:14Z</time>
      </trkpt>
      <trkpt lat="49.59584" lon="4.95428">
        <ele>208.26</ele>
        <time>2020-12-20T14:28:37Z</time>
      </trkpt>
      <trkpt lat="49.59609" lon="4.95435">
        <ele>207.78</ele>
        <time>2020-12-20T14:28:59Z</time>
      </trkpt>
      <trkpt lat="49.59631" lon="4.95444">
        <ele>205.86</ele>
        <time>2020-12-20T14:29:20Z</time>
      </trkpt>
      <trkpt lat="49.59649" lon="4.95449">
        <ele>208.26</ele>
        <time>2020-12-20T14:29:38Z</time>
      </trkpt>
      <trkpt lat="49.59676" lon="4.9545">
        <ele>206.34</ele>
        <time>2020-12-20T14:30:01Z</time>
      </trkpt>
      <trkpt lat="49.59698" lon="4.95452">
        <ele>202.98</ele>
        <time>2020-12-20T14:30:22Z</time>
      </trkpt>
      <trkpt lat="49.59715" lon="4.95454">
        <ele>201.05</ele>
        <time>2020-12-20T14:30:37Z</time>
      </trkpt>
      <trkpt lat="49.59738" lon="4.95455">
        <ele>203.94</ele>
        <time>2020-12-20T14:30:57Z</time>
      </trkpt>
      <trkpt lat="49.59761" lon="4.95458">
        <ele>199.61</ele>
        <time>2020-12-20T14:31:19Z</time>
      </trkpt>
      <trkpt lat="49.59788" lon="4.95461">
        <ele>195.77</ele>
        <time>2020-12-20T14:31:42Z</time>
      </trkpt>
      <trkpt lat="49.59808" lon="4.95462">
        <ele>195.28</ele>
        <time>2020-12-20T14:32:00Z</time>
      </trkpt>
      <trkpt lat="49.59833" lon="4.95466">
        <ele>194.8</ele>
        <time>2020-12-20T14:32:22Z</time>
      </trkpt>
      <trkpt lat="49.59855" lon="4.95472">
        <ele>194.8</ele>
        <time>2020-12-20T14:32:41Z</time>
      </trkpt>
      <trkpt lat="49.59875" lon="4.95482">
        <ele>194.8</ele>
        <time>2020-12-20T14:33:00Z</time>
      </trkpt>
      <trkpt lat="49.59891" lon="4.9547">
        <ele>193.84</ele>
        <time>2020-12-20T14:33:17Z</time>
      </trkpt>
      <trkpt lat="49.59911" lon="4.95462">
        <ele>192.88</ele>
        <time>2020-12-20T14:33:36Z</time>
      </trkpt>
      <trkpt lat="49.59923" lon="4.95458">
        <ele>191.92</ele>
        <time>2020-12-20T14:33:52Z</time>
      </trkpt>
      <trkpt lat="49.59923" lon="4.95459">
        <ele>192.88</ele>
        <time>2020-12-20T14:34:09Z</time>
      </trkpt>
      <trkpt lat="49.59928" lon="4.95459">
        <ele>192.88</ele>
        <time>2020-12-20T14:34:29Z</time>
      </trkpt>
      <trkpt lat="49.59953" lon="4.9548">
        <ele>192.88</ele>
        <time>2020-12-20T14:34:51Z</time>
      </trkpt>
      <trkpt lat="49.59975" lon="4.9549">
        <ele>193.84</ele>
        <time>2020-12-20T14:35:11Z</time>
      </trkpt>
      <trkpt lat="49.59998" lon="4.95507">
        <ele>194.32</ele>
        <time>2020-12-20T14:35:32Z</time>
      </trkpt>
      <trkpt lat="49.60021" lon="4.95518">
        <ele>194.8</ele>
        <time>2020-12-20T14:35:52Z</time>
      </trkpt>
      <trkpt lat="49.60044" lon="4.95537">
        <ele>201.05</ele>
        <time>2020-12-20T14:36:13Z</time>
      </trkpt>
      <trkpt lat="49.60067" lon="4.9555">
        <ele>203.94</ele>
        <time>2020-12-20T14:36:33Z</time>
      </trkpt>
      <trkpt lat="49.60094" lon="4.95562">
        <ele>208.74</ele>
        <time>2020-12-20T14:36:55Z</time>
      </trkpt>
      <trkpt lat="49.60112" lon="4.95545">
        <ele>202.49</ele>
        <time>2020-12-20T14:37:12Z</time>
      </trkpt>
      <trkpt lat="49.60131" lon="4.95535">
        <ele>199.13</ele>
        <time>2020-12-20T14:37:30Z</time>
      </trkpt>
      <trkpt lat="49.60149" lon="4.9553">
        <ele>197.69</ele>
        <time>2020-12-20T14:37:46Z</time>
      </trkpt>
      <trkpt lat="49.60173" lon="4.95521">
        <ele>196.25</ele>
        <time>2020-12-20T14:38:06Z</time>
      </trkpt>
      <trkpt lat="49.60193" lon="4.95516">
        <ele>196.25</ele>
        <time>2020-12-20T14:38:25Z</time>
      </trkpt>
      <trkpt lat="49.60209" lon="4.95513">
        <ele>196.73</ele>
        <time>2020-12-20T14:38:42Z</time>
      </trkpt>
      <trkpt lat="49.60232" lon="4.95515">
        <ele>196.25</ele>
        <time>2020-12-20T14:39:01Z</time>
      </trkpt>
      <trkpt lat="49.6025" lon="4.95525">
        <ele>197.69</ele>
        <time>2020-12-20T14:39:17Z</time>
      </trkpt>
      <trkpt lat="49.60273" lon="4.95542">
        <ele>198.65</ele>
        <time>2020-12-20T14:39:38Z</time>
      </trkpt>
      <trkpt lat="49.60286" lon="4.95554">
        <ele>198.65</ele>
        <time>2020-12-20T14:39:54Z</time>
      </trkpt>
      <trkpt lat="49.60311" lon="4.95541">
        <ele>199.61</ele>
        <time>2020-12-20T14:40:15Z</time>
      </trkpt>
      <trkpt lat="49.60329" lon="4.95536">
        <ele>198.65</ele>
        <time>2020-12-20T14:40:32Z</time>
      </trkpt>
      <trkpt lat="49.60346" lon="4.95544">
        <ele>200.09</ele>
        <time>2020-12-20T14:40:48Z</time>
      </trkpt>
      <trkpt lat="49.60367" lon="4.95549">
        <ele>198.65</ele>
        <time>2020-12-20T14:41:09Z</time>
      </trkpt>
      <trkpt lat="49.60382" lon="4.95546">
        <ele>197.69</ele>
        <time>2020-12-20T14:41:25Z</time>
      </trkpt>
      <trkpt lat="49.60406" lon="4.95546">
        <ele>199.13</ele>
        <time>2020-12-20T14:41:44Z</time>
      </trkpt>
      <trkpt lat="49.60432" lon="4.9553">
        <ele>195.28</ele>
        <time>2020-12-20T14:42:05Z</time>
      </trkpt>
      <trkpt lat="49.60459" lon="4.95515">
        <ele>194.32</ele>
        <time>2020-12-20T14:42:29Z</time>
      </trkpt>
      <trkpt lat="49.60485" lon="4.95499">
        <ele>196.25</ele>
        <time>2020-12-20T14:42:52Z</time>
      </trkpt>
      <trkpt lat="49.6051" lon="4.95483">
        <ele>197.21</ele>
        <time>2020-12-20T14:43:16Z</time>
      </trkpt>
      <trkpt lat="49.60529" lon="4.95467">
        <ele>199.13</ele>
        <time>2020-12-20T14:43:33Z</time>
      </trkpt>
      <trkpt lat="49.60548" lon="4.95454">
        <ele>200.57</ele>
        <time>2020-12-20T14:43:52Z</time>
      </trkpt>
      <trkpt lat="49.60564" lon="4.95449">
        <ele>201.05</ele>
        <time>2020-12-20T14:44:09Z</time>
      </trkpt>
      <trkpt lat="49.60586" lon="4.95445">
        <ele>199.61</ele>
        <time>2020-12-20T14:44:29Z</time>
      </trkpt>
      <trkpt lat="49.60602" lon="4.95441">
        <ele>195.28</ele>
        <time>2020-12-20T14:44:47Z</time>
      </trkpt>
      <trkpt lat="49.60613" lon="4.95438">
        <ele>195.77</ele>
        <time>2020-12-20T14:45:00Z</time>
      </trkpt>
      <trkpt lat="49.60635" lon="4.95434">
        <ele>195.28</ele>
        <time>2020-12-20T14:45:18Z</time>
      </trkpt>
      <trkpt lat="49.60662" lon="4.95426">
        <ele>190.48</ele>
        <time>2020-12-20T14:45:41Z</time>
      </trkpt>
      <trkpt lat="49.60681" lon="4.95418">
        <ele>189.04</ele>
        <time>2020-12-20T14:46:00Z</time>
      </trkpt>
      <trkpt lat="49.60701" lon="4.95418">
        <ele>188.56</ele>
        <time>2020-12-20T14:46:16Z</time>
      </trkpt>
      <trkpt lat="49.60719" lon="4.95415">
        <ele>190.96</ele>
        <time>2020-12-20T14:46:32Z</time>
      </trkpt>
      <trkpt lat="49.60736" lon="4.95413">
        <ele>190.96</ele>
        <time>2020-12-20T14:46:48Z</time>
      </trkpt>
      <trkpt lat="49.60755" lon="4.95414">
        <ele>192.88</ele>
        <time>2020-12-20T14:47:06Z</time>
      </trkpt>
      <trkpt lat="49.60759" lon="4.95415">
        <ele>193.36</ele>
        <time>2020-12-20T14:47:09Z</time>
      </trkpt>
      <trkpt lat="49.60766" lon="4.95414">
        <ele>193.84</ele>
        <time>2020-12-20T14:47:15Z</time>
      </trkpt>
      <trkpt lat="49.60788" lon="4.95415">
        <ele>193.84</ele>
        <time>2020-12-20T14:47:35Z</time>
      </trkpt>
      <trkpt lat="49.60804" lon="4.9542">
        <ele>195.77</ele>
        <time>2020-12-20T14:47:51Z</time>
      </trkpt>
      <trkpt lat="49.60821" lon="4.95425">
        <ele>196.25</ele>
        <time>2020-12-20T14:48:08Z</time>
      </trkpt>
      <trkpt lat="49.60839" lon="4.95438">
        <ele>195.28</ele>
        <time>2020-12-20T14:48:26Z</time>
      </trkpt>
      <trkpt lat="49.60843" lon="4.95442">
        <ele>195.77</ele>
        <time>2020-12-20T14:48:31Z</time>
      </trkpt>
      <trkpt lat="49.60846" lon="4.95446">
        <ele>195.77</ele>
        <time>2020-12-20T14:48:34Z</time>
      </trkpt>
      <trkpt lat="49.60861" lon="4.95458">
        <ele>194.32</ele>
        <time>2020-12-20T14:48:53Z</time>
      </trkpt>
      <trkpt lat="49.6087" lon="4.9546">
        <ele>193.36</ele>
        <time>2020-12-20T14:49:14Z</time>
      </trkpt>
      <trkpt lat="49.60879" lon="4.95464">
        <ele>191.92</ele>
        <time>2020-12-20T14:49:27Z</time>
      </trkpt>
      <trkpt lat="49.60892" lon="4.9547">
        <ele>190</ele>
        <time>2020-12-20T14:49:38Z</time>
      </trkpt>
      <trkpt lat="49.60913" lon="4.95478">
        <ele>190.48</ele>
        <time>2020-12-20T14:49:56Z</time>
      </trkpt>
      <trkpt lat="49.60933" lon="4.95488">
        <ele>190.96</ele>
        <time>2020-12-20T14:50:13Z</time>
      </trkpt>
      <trkpt lat="49.60951" lon="4.95494">
        <ele>190.96</ele>
        <time>2020-12-20T14:50:31Z</time>
      </trkpt>
      <trkpt lat="49.60972" lon="4.95504">
        <ele>188.56</ele>
        <time>2020-12-20T14:50:50Z</time>
      </trkpt>
      <trkpt lat="49.60989" lon="4.95512">
        <ele>188.08</ele>
        <time>2020-12-20T14:51:06Z</time>
      </trkpt>
      <trkpt lat="49.61011" lon="4.95524">
        <ele>189.52</ele>
        <time>2020-12-20T14:51:25Z</time>
      </trkpt>
      <trkpt lat="49.61028" lon="4.95534">
        <ele>191.44</ele>
        <time>2020-12-20T14:51:42Z</time>
      </trkpt>
      <trkpt lat="49.61044" lon="4.95544">
        <ele>192.88</ele>
        <time>2020-12-20T14:51:57Z</time>
      </trkpt>
      <trkpt lat="49.61065" lon="4.95547">
        <ele>197.21</ele>
        <time>2020-12-20T14:52:15Z</time>
      </trkpt>
      <trkpt lat="49.61068" lon="4.95546">
        <ele>197.69</ele>
        <time>2020-12-20T14:52:18Z</time>
      </trkpt>
      <trkpt lat="49.61094" lon="4.95532">
        <ele>199.13</ele>
        <time>2020-12-20T14:52:37Z</time>
      </trkpt>
      <trkpt lat="49.61111" lon="4.95528">
        <ele>203.46</ele>
        <time>2020-12-20T14:52:55Z</time>
      </trkpt>
      <trkpt lat="49.61115" lon="4.95528">
        <ele>205.38</ele>
        <time>2020-12-20T14:53:02Z</time>
      </trkpt>
      <trkpt lat="49.61131" lon="4.95532">
        <ele>206.34</ele>
        <time>2020-12-20T14:53:17Z</time>
      </trkpt>
      <trkpt lat="49.61149" lon="4.95538">
        <ele>207.78</ele>
        <time>2020-12-20T14:53:33Z</time>
      </trkpt>
      <trkpt lat="49.6117" lon="4.95542">
        <ele>207.3</ele>
        <time>2020-12-20T14:53:49Z</time>
      </trkpt>
      <trkpt lat="49.61185" lon="4.95548">
        <ele>209.22</ele>
        <time>2020-12-20T14:54:04Z</time>
      </trkpt>
      <trkpt lat="49.61202" lon="4.95554">
        <ele>210.67</ele>
        <time>2020-12-20T14:54:20Z</time>
      </trkpt>
      <trkpt lat="49.61215" lon="4.9556">
        <ele>212.59</ele>
        <time>2020-12-20T14:54:33Z</time>
      </trkpt>
      <trkpt lat="49.6124" lon="4.95572">
        <ele>214.51</ele>
        <time>2020-12-20T14:54:54Z</time>
      </trkpt>
      <trkpt lat="49.61254" lon="4.95578">
        <ele>214.99</ele>
        <time>2020-12-20T14:55:10Z</time>
      </trkpt>
      <trkpt lat="49.61266" lon="4.95581">
        <ele>211.63</ele>
        <time>2020-12-20T14:55:27Z</time>
      </trkpt>
      <trkpt lat="49.61286" lon="4.95595">
        <ele>207.78</ele>
        <time>2020-12-20T14:55:43Z</time>
      </trkpt>
      <trkpt lat="49.61305" lon="4.95608">
        <ele>205.38</ele>
        <time>2020-12-20T14:55:59Z</time>
      </trkpt>
      <trkpt lat="49.61323" lon="4.9562">
        <ele>201.05</ele>
        <time>2020-12-20T14:56:18Z</time>
      </trkpt>
      <trkpt lat="49.61335" lon="4.95637">
        <ele>199.13</ele>
        <time>2020-12-20T14:56:35Z</time>
      </trkpt>
      <trkpt lat="49.61343" lon="4.95654">
        <ele>199.13</ele>
        <time>2020-12-20T14:56:50Z</time>
      </trkpt>
      <trkpt lat="49.61349" lon="4.9567">
        <ele>198.17</ele>
        <time>2020-12-20T14:57:02Z</time>
      </trkpt>
      <trkpt lat="49.61362" lon="4.95703">
        <ele>193.84</ele>
        <time>2020-12-20T14:57:21Z</time>
      </trkpt>
      <trkpt lat="49.61374" lon="4.95724">
        <ele>190.96</ele>
        <time>2020-12-20T14:57:37Z</time>
      </trkpt>
      <trkpt lat="49.61382" lon="4.95732">
        <ele>190.96</ele>
        <time>2020-12-20T14:57:46Z</time>
      </trkpt>
      <trkpt lat="49.61396" lon="4.95746">
        <ele>188.56</ele>
        <time>2020-12-20T14:58:02Z</time>
      </trkpt>
      <trkpt lat="49.6141" lon="4.95759">
        <ele>185.67</ele>
        <time>2020-12-20T14:58:19Z</time>
      </trkpt>
      <trkpt lat="49.61413" lon="4.95761">
        <ele>185.19</ele>
        <time>2020-12-20T14:58:22Z</time>
      </trkpt>
      <trkpt lat="49.61433" lon="4.95779">
        <ele>183.27</ele>
        <time>2020-12-20T14:58:43Z</time>
      </trkpt>
      <trkpt lat="49.61451" lon="4.95797">
        <ele>184.71</ele>
        <time>2020-12-20T14:59:02Z</time>
      </trkpt>
      <trkpt lat="49.61467" lon="4.95815">
        <ele>189.04</ele>
        <time>2020-12-20T14:59:22Z</time>
      </trkpt>
      <trkpt lat="49.61485" lon="4.95831">
        <ele>189.52</ele>
        <time>2020-12-20T14:59:42Z</time>
      </trkpt>
      <trkpt lat="49.61503" lon="4.95845">
        <ele>194.32</ele>
        <time>2020-12-20T15:00:01Z</time>
      </trkpt>
      <trkpt lat="49.61525" lon="4.95856">
        <ele>199.13</ele>
        <time>2020-12-20T15:00:21Z</time>
      </trkpt>
      <trkpt lat="49.61546" lon="4.95869">
        <ele>202.01</ele>
        <time>2020-12-20T15:00:41Z</time>
      </trkpt>
      <trkpt lat="49.61566" lon="4.95878">
        <ele>204.9</ele>
        <time>2020-12-20T15:01:00Z</time>
      </trkpt>
      <trkpt lat="49.61584" lon="4.95889">
        <ele>207.78</ele>
        <time>2020-12-20T15:01:16Z</time>
      </trkpt>
      <trkpt lat="49.61603" lon="4.95903">
        <ele>203.94</ele>
        <time>2020-12-20T15:01:33Z</time>
      </trkpt>
      <trkpt lat="49.61621" lon="4.95914">
        <ele>202.01</ele>
        <time>2020-12-20T15:01:49Z</time>
      </trkpt>
      <trkpt lat="49.61643" lon="4.95929">
        <ele>197.69</ele>
        <time>2020-12-20T15:02:09Z</time>
      </trkpt>
      <trkpt lat="49.61649" lon="4.95932">
        <ele>195.77</ele>
        <time>2020-12-20T15:02:16Z</time>
      </trkpt>
      <trkpt lat="49.61666" lon="4.95941">
        <ele>191.92</ele>
        <time>2020-12-20T15:02:35Z</time>
      </trkpt>
      <trkpt lat="49.61665" lon="4.95941">
        <ele>192.88</ele>
        <time>2020-12-20T15:02:51Z</time>
      </trkpt>
      <trkpt lat="49.61679" lon="4.95955">
        <ele>195.77</ele>
        <time>2020-12-20T15:03:07Z</time>
      </trkpt>
      <trkpt lat="49.61688" lon="4.95963">
        <ele>195.77</ele>
        <time>2020-12-20T15:03:19Z</time>
      </trkpt>
      <trkpt lat="49.61689" lon="4.95963">
        <ele>194.8</ele>
        <time>2020-12-20T15:03:37Z</time>
      </trkpt>
      <trkpt lat="49.61699" lon="4.95972">
        <ele>194.8</ele>
        <time>2020-12-20T15:03:51Z</time>
      </trkpt>
      <trkpt lat="49.61703" lon="4.95976">
        <ele>194.8</ele>
        <time>2020-12-20T15:03:57Z</time>
      </trkpt>
      <trkpt lat="49.61706" lon="4.9598">
        <ele>194.8</ele>
        <time>2020-12-20T15:04:13Z</time>
      </trkpt>
      <trkpt lat="49.61721" lon="4.95988">
        <ele>194.32</ele>
        <time>2020-12-20T15:04:27Z</time>
      </trkpt>
      <trkpt lat="49.61743" lon="4.95997">
        <ele>195.28</ele>
        <time>2020-12-20T15:04:49Z</time>
      </trkpt>
      <trkpt lat="49.61763" lon="4.96002">
        <ele>193.84</ele>
        <time>2020-12-20T15:05:06Z</time>
      </trkpt>
      <trkpt lat="49.61782" lon="4.96013">
        <ele>194.32</ele>
        <time>2020-12-20T15:05:26Z</time>
      </trkpt>
      <trkpt lat="49.61799" lon="4.96019">
        <ele>196.25</ele>
        <time>2020-12-20T15:05:42Z</time>
      </trkpt>
      <trkpt lat="49.61818" lon="4.96027">
        <ele>196.25</ele>
        <time>2020-12-20T15:05:59Z</time>
      </trkpt>
      <trkpt lat="49.61833" lon="4.96032">
        <ele>196.73</ele>
        <time>2020-12-20T15:06:16Z</time>
      </trkpt>
      <trkpt lat="49.61853" lon="4.96036">
        <ele>193.84</ele>
        <time>2020-12-20T15:06:32Z</time>
      </trkpt>
      <trkpt lat="49.61869" lon="4.96035">
        <ele>190.48</ele>
        <time>2020-12-20T15:06:46Z</time>
      </trkpt>
      <trkpt lat="49.61883" lon="4.96033">
        <ele>188.56</ele>
        <time>2020-12-20T15:07:00Z</time>
      </trkpt>
      <trkpt lat="49.619" lon="4.96038">
        <ele>182.79</ele>
        <time>2020-12-20T15:07:15Z</time>
      </trkpt>
      <trkpt lat="49.61913" lon="4.96038">
        <ele>178.94</ele>
        <time>2020-12-20T15:07:27Z</time>
      </trkpt>
      <trkpt lat="49.61931" lon="4.96045">
        <ele>180.38</ele>
        <time>2020-12-20T15:07:46Z</time>
      </trkpt>
      <trkpt lat="49.61954" lon="4.96051">
        <ele>183.75</ele>
        <time>2020-12-20T15:08:06Z</time>
      </trkpt>
      <trkpt lat="49.61977" lon="4.96051">
        <ele>185.19</ele>
        <time>2020-12-20T15:08:26Z</time>
      </trkpt>
      <trkpt lat="49.62" lon="4.96054">
        <ele>190</ele>
        <time>2020-12-20T15:08:47Z</time>
      </trkpt>
      <trkpt lat="49.62018" lon="4.96053">
        <ele>187.11</ele>
        <time>2020-12-20T15:09:05Z</time>
      </trkpt>
      <trkpt lat="49.62037" lon="4.96052">
        <ele>188.56</ele>
        <time>2020-12-20T15:09:20Z</time>
      </trkpt>
      <trkpt lat="49.62059" lon="4.96053">
        <ele>190.48</ele>
        <time>2020-12-20T15:09:39Z</time>
      </trkpt>
      <trkpt lat="49.62078" lon="4.96047">
        <ele>190.48</ele>
        <time>2020-12-20T15:09:57Z</time>
      </trkpt>
      <trkpt lat="49.62101" lon="4.9604">
        <ele>186.15</ele>
        <time>2020-12-20T15:10:17Z</time>
      </trkpt>
      <trkpt lat="49.62117" lon="4.96034">
        <ele>186.15</ele>
        <time>2020-12-20T15:10:34Z</time>
      </trkpt>
      <trkpt lat="49.62136" lon="4.96025">
        <ele>185.19</ele>
        <time>2020-12-20T15:10:51Z</time>
      </trkpt>
      <trkpt lat="49.62153" lon="4.9602">
        <ele>187.59</ele>
        <time>2020-12-20T15:11:09Z</time>
      </trkpt>
      <trkpt lat="49.62165" lon="4.96014">
        <ele>189.52</ele>
        <time>2020-12-20T15:11:25Z</time>
      </trkpt>
      <trkpt lat="49.62177" lon="4.96011">
        <ele>190.48</ele>
        <time>2020-12-20T15:11:42Z</time>
      </trkpt>
      <trkpt lat="49.62201" lon="4.96016">
        <ele>186.15</ele>
        <time>2020-12-20T15:11:59Z</time>
      </trkpt>
      <trkpt lat="49.62214" lon="4.96013">
        <ele>185.19</ele>
        <time>2020-12-20T15:12:07Z</time>
      </trkpt>
      <trkpt lat="49.62219" lon="4.96009">
        <ele>184.23</ele>
        <time>2020-12-20T15:12:11Z</time>
      </trkpt>
      <trkpt lat="49.62223" lon="4.96006">
        <ele>182.79</ele>
        <time>2020-12-20T15:12:15Z</time>
      </trkpt>
      <trkpt lat="49.62236" lon="4.95998">
        <ele>179.9</ele>
        <time>2020-12-20T15:12:29Z</time>
      </trkpt>
      <trkpt lat="49.62243" lon="4.96013">
        <ele>178.46</ele>
        <time>2020-12-20T15:12:39Z</time>
      </trkpt>
      <trkpt lat="49.62264" lon="4.96034">
        <ele>172.69</ele>
        <time>2020-12-20T15:13:00Z</time>
      </trkpt>
      <trkpt lat="49.62267" lon="4.96039">
        <ele>171.25</ele>
        <time>2020-12-20T15:13:05Z</time>
      </trkpt>
      <trkpt lat="49.62279" lon="4.96055">
        <ele>166.93</ele>
        <time>2020-12-20T15:13:19Z</time>
      </trkpt>
      <trkpt lat="49.62291" lon="4.96074">
        <ele>164.52</ele>
        <time>2020-12-20T15:13:35Z</time>
      </trkpt>
      <trkpt lat="49.62301" lon="4.96084">
        <ele>165.96</ele>
        <time>2020-12-20T15:13:49Z</time>
      </trkpt>
      <trkpt lat="49.62318" lon="4.96089">
        <ele>167.89</ele>
        <time>2020-12-20T15:14:06Z</time>
      </trkpt>
      <trkpt lat="49.6233" lon="4.96091">
        <ele>168.85</ele>
        <time>2020-12-20T15:14:15Z</time>
      </trkpt>
      <trkpt lat="49.62346" lon="4.96096">
        <ele>169.81</ele>
        <time>2020-12-20T15:14:32Z</time>
      </trkpt>
      <trkpt lat="49.62359" lon="4.96115">
        <ele>174.14</ele>
        <time>2020-12-20T15:14:50Z</time>
      </trkpt>
      <trkpt lat="49.62377" lon="4.96126">
        <ele>173.17</ele>
        <time>2020-12-20T15:15:05Z</time>
      </trkpt>
      <trkpt lat="49.62379" lon="4.96127">
        <ele>174.14</ele>
        <time>2020-12-20T15:15:08Z</time>
      </trkpt>
      <trkpt lat="49.62392" lon="4.96128">
        <ele>177.02</ele>
        <time>2020-12-20T15:15:24Z</time>
      </trkpt>
      <trkpt lat="49.62413" lon="4.96135">
        <ele>178.94</ele>
        <time>2020-12-20T15:15:42Z</time>
      </trkpt>
      <trkpt lat="49.62435" lon="4.96134">
        <ele>182.31</ele>
        <time>2020-12-20T15:16:01Z</time>
      </trkpt>
      <trkpt lat="49.62453" lon="4.96137">
        <ele>186.15</ele>
        <time>2020-12-20T15:16:18Z</time>
      </trkpt>
      <trkpt lat="49.62473" lon="4.96154">
        <ele>184.71</ele>
        <time>2020-12-20T15:16:38Z</time>
      </trkpt>
      <trkpt lat="49.6249" lon="4.9616">
        <ele>185.19</ele>
        <time>2020-12-20T15:16:54Z</time>
      </trkpt>
      <trkpt lat="49.62507" lon="4.96164">
        <ele>186.63</ele>
        <time>2020-12-20T15:17:10Z</time>
      </trkpt>
      <trkpt lat="49.62509" lon="4.96165">
        <ele>187.11</ele>
        <time>2020-12-20T15:17:12Z</time>
      </trkpt>
      <trkpt lat="49.62535" lon="4.96172">
        <ele>184.71</ele>
        <time>2020-12-20T15:17:31Z</time>
      </trkpt>
      <trkpt lat="49.62554" lon="4.96178">
        <ele>182.79</ele>
        <time>2020-12-20T15:17:50Z</time>
      </trkpt>
      <trkpt lat="49.62564" lon="4.96179">
        <ele>181.35</ele>
        <time>2020-12-20T15:18:04Z</time>
      </trkpt>
      <trkpt lat="49.62581" lon="4.96182">
        <ele>180.87</ele>
        <time>2020-12-20T15:18:20Z</time>
      </trkpt>
      <trkpt lat="49.62598" lon="4.96194">
        <ele>182.79</ele>
        <time>2020-12-20T15:18:35Z</time>
      </trkpt>
      <trkpt lat="49.62622" lon="4.96203">
        <ele>181.83</ele>
        <time>2020-12-20T15:18:54Z</time>
      </trkpt>
      <trkpt lat="49.62637" lon="4.96201">
        <ele>181.83</ele>
        <time>2020-12-20T15:19:08Z</time>
      </trkpt>
      <trkpt lat="49.62656" lon="4.96205">
        <ele>180.87</ele>
        <time>2020-12-20T15:19:24Z</time>
      </trkpt>
      <trkpt lat="49.62674" lon="4.96212">
        <ele>179.9</ele>
        <time>2020-12-20T15:19:41Z</time>
      </trkpt>
      <trkpt lat="49.627" lon="4.96223">
        <ele>174.62</ele>
        <time>2020-12-20T15:20:01Z</time>
      </trkpt>
      <trkpt lat="49.62723" lon="4.96234">
        <ele>174.62</ele>
        <time>2020-12-20T15:20:22Z</time>
      </trkpt>
      <trkpt lat="49.62747" lon="4.96249">
        <ele>172.21</ele>
        <time>2020-12-20T15:20:45Z</time>
      </trkpt>
      <trkpt lat="49.62769" lon="4.96269">
        <ele>169.33</ele>
        <time>2020-12-20T15:21:07Z</time>
      </trkpt>
      <trkpt lat="49.62786" lon="4.96281">
        <ele>169.33</ele>
        <time>2020-12-20T15:21:24Z</time>
      </trkpt>
      <trkpt lat="49.62803" lon="4.96293">
        <ele>165.96</ele>
        <time>2020-12-20T15:21:41Z</time>
      </trkpt>
      <trkpt lat="49.62822" lon="4.96313">
        <ele>171.25</ele>
        <time>2020-12-20T15:22:01Z</time>
      </trkpt>
      <trkpt lat="49.62845" lon="4.96309">
        <ele>180.38</ele>
        <time>2020-12-20T15:22:21Z</time>
      </trkpt>
      <trkpt lat="49.62868" lon="4.9632">
        <ele>184.71</ele>
        <time>2020-12-20T15:22:40Z</time>
      </trkpt>
      <trkpt lat="49.62886" lon="4.96332">
        <ele>183.75</ele>
        <time>2020-12-20T15:22:58Z</time>
      </trkpt>
      <trkpt lat="49.62904" lon="4.96348">
        <ele>185.19</ele>
        <time>2020-12-20T15:23:18Z</time>
      </trkpt>
      <trkpt lat="49.62924" lon="4.96363">
        <ele>185.19</ele>
        <time>2020-12-20T15:23:39Z</time>
      </trkpt>
      <trkpt lat="49.62938" lon="4.96373">
        <ele>182.31</ele>
        <time>2020-12-20T15:23:55Z</time>
      </trkpt>
      <trkpt lat="49.62957" lon="4.96389">
        <ele>180.87</ele>
        <time>2020-12-20T15:24:15Z</time>
      </trkpt>
      <trkpt lat="49.62975" lon="4.96401">
        <ele>177.02</ele>
        <time>2020-12-20T15:24:34Z</time>
      </trkpt>
      <trkpt lat="49.62981" lon="4.96404">
        <ele>175.1</ele>
        <time>2020-12-20T15:24:50Z</time>
      </trkpt>
      <trkpt lat="49.62983" lon="4.96405">
        <ele>174.62</ele>
        <time>2020-12-20T15:25:13Z</time>
      </trkpt>
      <trkpt lat="49.62993" lon="4.96412">
        <ele>174.14</ele>
        <time>2020-12-20T15:25:34Z</time>
      </trkpt>
      <trkpt lat="49.63018" lon="4.96427">
        <ele>174.14</ele>
        <time>2020-12-20T15:25:55Z</time>
      </trkpt>
      <trkpt lat="49.63044" lon="4.96444">
        <ele>174.62</ele>
        <time>2020-12-20T15:26:20Z</time>
      </trkpt>
      <trkpt lat="49.63063" lon="4.96456">
        <ele>173.66</ele>
        <time>2020-12-20T15:26:39Z</time>
      </trkpt>
      <trkpt lat="49.63084" lon="4.96471">
        <ele>174.62</ele>
        <time>2020-12-20T15:27:00Z</time>
      </trkpt>
      <trkpt lat="49.63102" lon="4.96482">
        <ele>173.66</ele>
        <time>2020-12-20T15:27:19Z</time>
      </trkpt>
      <trkpt lat="49.63123" lon="4.96494">
        <ele>172.69</ele>
        <time>2020-12-20T15:27:39Z</time>
      </trkpt>
      <trkpt lat="49.63142" lon="4.96506">
        <ele>171.73</ele>
        <time>2020-12-20T15:27:58Z</time>
      </trkpt>
      <trkpt lat="49.6316" lon="4.96517">
        <ele>170.77</ele>
        <time>2020-12-20T15:28:16Z</time>
      </trkpt>
      <trkpt lat="49.63166" lon="4.96518">
        <ele>170.29</ele>
        <time>2020-12-20T15:28:22Z</time>
      </trkpt>
      <trkpt lat="49.63187" lon="4.9653">
        <ele>169.33</ele>
        <time>2020-12-20T15:28:43Z</time>
      </trkpt>
      <trkpt lat="49.63206" lon="4.96541">
        <ele>168.85</ele>
        <time>2020-12-20T15:29:03Z</time>
      </trkpt>
      <trkpt lat="49.63222" lon="4.96554">
        <ele>168.37</ele>
        <time>2020-12-20T15:29:20Z</time>
      </trkpt>
      <trkpt lat="49.63239" lon="4.96568">
        <ele>170.77</ele>
        <time>2020-12-20T15:29:39Z</time>
      </trkpt>
      <trkpt lat="49.63256" lon="4.96581">
        <ele>170.29</ele>
        <time>2020-12-20T15:29:56Z</time>
      </trkpt>
      <trkpt lat="49.63277" lon="4.96598">
        <ele>170.77</ele>
        <time>2020-12-20T15:30:18Z</time>
      </trkpt>
      <trkpt lat="49.63284" lon="4.96612">
        <ele>170.77</ele>
        <time>2020-12-20T15:30:32Z</time>
      </trkpt>
      <trkpt lat="49.63285" lon="4.96615">
        <ele>170.77</ele>
        <time>2020-12-20T15:30:35Z</time>
      </trkpt>
      <trkpt lat="49.63292" lon="4.96642">
        <ele>169.33</ele>
        <time>2020-12-20T15:30:55Z</time>
      </trkpt>
      <trkpt lat="49.63305" lon="4.96667">
        <ele>167.41</ele>
        <time>2020-12-20T15:31:16Z</time>
      </trkpt>
      <trkpt lat="49.63312" lon="4.96679">
        <ele>166.45</ele>
        <time>2020-12-20T15:31:36Z</time>
      </trkpt>
      <trkpt lat="49.63316" lon="4.96684">
        <ele>165.96</ele>
        <time>2020-12-20T15:31:56Z</time>
      </trkpt>
      <trkpt lat="49.6332" lon="4.96688">
        <ele>166.93</ele>
        <time>2020-12-20T15:32:22Z</time>
      </trkpt>
      <trkpt lat="49.63324" lon="4.96696">
        <ele>166.45</ele>
        <time>2020-12-20T15:32:46Z</time>
      </trkpt>
      <trkpt lat="49.63333" lon="4.96724">
        <ele>163.08</ele>
        <time>2020-12-20T15:33:06Z</time>
      </trkpt>
      <trkpt lat="49.63335" lon="4.96733">
        <ele>163.08</ele>
        <time>2020-12-20T15:33:12Z</time>
      </trkpt>
      <trkpt lat="49.63338" lon="4.96763">
        <ele>161.64</ele>
        <time>2020-12-20T15:33:33Z</time>
      </trkpt>
      <trkpt lat="49.63339" lon="4.96765">
        <ele>161.64</ele>
        <time>2020-12-20T15:33:34Z</time>
      </trkpt>
      <trkpt lat="49.63349" lon="4.96799">
        <ele>164.52</ele>
        <time>2020-12-20T15:33:56Z</time>
      </trkpt>
      <trkpt lat="49.63363" lon="4.96825">
        <ele>166.45</ele>
        <time>2020-12-20T15:34:17Z</time>
      </trkpt>
      <trkpt lat="49.63369" lon="4.96834">
        <ele>165</ele>
        <time>2020-12-20T15:34:32Z</time>
      </trkpt>
      <trkpt lat="49.63383" lon="4.9685">
        <ele>166.45</ele>
        <time>2020-12-20T15:34:49Z</time>
      </trkpt>
      <trkpt lat="49.63392" lon="4.9686">
        <ele>168.37</ele>
        <time>2020-12-20T15:35:04Z</time>
      </trkpt>
      <trkpt lat="49.63405" lon="4.96875">
        <ele>168.85</ele>
        <time>2020-12-20T15:35:20Z</time>
      </trkpt>
      <trkpt lat="49.63418" lon="4.96889">
        <ele>169.33</ele>
        <time>2020-12-20T15:35:38Z</time>
      </trkpt>
      <trkpt lat="49.63432" lon="4.96906">
        <ele>169.81</ele>
        <time>2020-12-20T15:35:58Z</time>
      </trkpt>
      <trkpt lat="49.63445" lon="4.96922">
        <ele>168.85</ele>
        <time>2020-12-20T15:36:16Z</time>
      </trkpt>
      <trkpt lat="49.63454" lon="4.96935">
        <ele>168.85</ele>
        <time>2020-12-20T15:36:32Z</time>
      </trkpt>
      <trkpt lat="49.63459" lon="4.9694">
        <ele>168.85</ele>
        <time>2020-12-20T15:36:49Z</time>
      </trkpt>
      <trkpt lat="49.63463" lon="4.96954">
        <ele>169.81</ele>
        <time>2020-12-20T15:37:04Z</time>
      </trkpt>
      <trkpt lat="49.6347" lon="4.96978">
        <ele>171.73</ele>
        <time>2020-12-20T15:37:22Z</time>
      </trkpt>
      <trkpt lat="49.63473" lon="4.97008">
        <ele>170.77</ele>
        <time>2020-12-20T15:37:42Z</time>
      </trkpt>
      <trkpt lat="49.63476" lon="4.97023">
        <ele>170.29</ele>
        <time>2020-12-20T15:37:54Z</time>
      </trkpt>
      <trkpt lat="49.63484" lon="4.97048">
        <ele>173.17</ele>
        <time>2020-12-20T15:38:11Z</time>
      </trkpt>
      <trkpt lat="49.63485" lon="4.97057">
        <ele>173.17</ele>
        <time>2020-12-20T15:38:17Z</time>
      </trkpt>
      <trkpt lat="49.63496" lon="4.97086">
        <ele>176.06</ele>
        <time>2020-12-20T15:38:38Z</time>
      </trkpt>
      <trkpt lat="49.63504" lon="4.97113">
        <ele>179.42</ele>
        <time>2020-12-20T15:38:57Z</time>
      </trkpt>
      <trkpt lat="49.6351" lon="4.97135">
        <ele>178.94</ele>
        <time>2020-12-20T15:39:13Z</time>
      </trkpt>
      <trkpt lat="49.63518" lon="4.97165">
        <ele>179.42</ele>
        <time>2020-12-20T15:39:32Z</time>
      </trkpt>
      <trkpt lat="49.63526" lon="4.9719">
        <ele>178.94</ele>
        <time>2020-12-20T15:39:50Z</time>
      </trkpt>
      <trkpt lat="49.63532" lon="4.97213">
        <ele>179.42</ele>
        <time>2020-12-20T15:40:06Z</time>
      </trkpt>
      <trkpt lat="49.63539" lon="4.97237">
        <ele>180.87</ele>
        <time>2020-12-20T15:40:23Z</time>
      </trkpt>
      <trkpt lat="49.63546" lon="4.97264">
        <ele>180.87</ele>
        <time>2020-12-20T15:40:42Z</time>
      </trkpt>
      <trkpt lat="49.63553" lon="4.97288">
        <ele>179.9</ele>
        <time>2020-12-20T15:41:00Z</time>
      </trkpt>
      <trkpt lat="49.63556" lon="4.97298">
        <ele>178.46</ele>
        <time>2020-12-20T15:41:15Z</time>
      </trkpt>
      <trkpt lat="49.63561" lon="4.97315">
        <ele>177.98</ele>
        <time>2020-12-20T15:41:30Z</time>
      </trkpt>
      <trkpt lat="49.63569" lon="4.97336">
        <ele>178.94</ele>
        <time>2020-12-20T15:41:47Z</time>
      </trkpt>
      <trkpt lat="49.6357" lon="4.97337">
        <ele>178.94</ele>
        <time>2020-12-20T15:41:48Z</time>
      </trkpt>
      <trkpt lat="49.63587" lon="4.97357">
        <ele>178.46</ele>
        <time>2020-12-20T15:42:06Z</time>
      </trkpt>
      <trkpt lat="49.63603" lon="4.97374">
        <ele>179.9</ele>
        <time>2020-12-20T15:42:24Z</time>
      </trkpt>
      <trkpt lat="49.63604" lon="4.97376">
        <ele>180.38</ele>
        <time>2020-12-20T15:42:26Z</time>
      </trkpt>
      <trkpt lat="49.63622" lon="4.97396">
        <ele>180.87</ele>
        <time>2020-12-20T15:42:47Z</time>
      </trkpt>
      <trkpt lat="49.63637" lon="4.97412">
        <ele>179.42</ele>
        <time>2020-12-20T15:43:04Z</time>
      </trkpt>
      <trkpt lat="49.63649" lon="4.97434">
        <ele>179.42</ele>
        <time>2020-12-20T15:43:24Z</time>
      </trkpt>
      <trkpt lat="49.63645" lon="4.97448">
        <ele>179.42</ele>
        <time>2020-12-20T15:43:36Z</time>
      </trkpt>
      <trkpt lat="49.63642" lon="4.97475">
        <ele>177.5</ele>
        <time>2020-12-20T15:43:55Z</time>
      </trkpt>
      <trkpt lat="49.63641" lon="4.97504">
        <ele>174.62</ele>
        <time>2020-12-20T15:44:14Z</time>
      </trkpt>
      <trkpt lat="49.63643" lon="4.97525">
        <ele>172.69</ele>
        <time>2020-12-20T15:44:32Z</time>
      </trkpt>
      <trkpt lat="49.63645" lon="4.97547">
        <ele>171.73</ele>
        <time>2020-12-20T15:44:48Z</time>
      </trkpt>
      <trkpt lat="49.63647" lon="4.97572">
        <ele>169.33</ele>
        <time>2020-12-20T15:45:05Z</time>
      </trkpt>
      <trkpt lat="49.63648" lon="4.97594">
        <ele>166.93</ele>
        <time>2020-12-20T15:45:16Z</time>
      </trkpt>
      <trkpt lat="49.63647" lon="4.97599">
        <ele>166.93</ele>
        <time>2020-12-20T15:45:19Z</time>
      </trkpt>
      <trkpt lat="49.63645" lon="4.97617">
        <ele>165.96</ele>
        <time>2020-12-20T15:45:31Z</time>
      </trkpt>
      <trkpt lat="49.63634" lon="4.97643">
        <ele>164.04</ele>
        <time>2020-12-20T15:45:52Z</time>
      </trkpt>
      <trkpt lat="49.63622" lon="4.97654">
        <ele>163.56</ele>
        <time>2020-12-20T15:46:08Z</time>
      </trkpt>
      <trkpt lat="49.63611" lon="4.97664">
        <ele>163.08</ele>
        <time>2020-12-20T15:46:26Z</time>
      </trkpt>
      <trkpt lat="49.63609" lon="4.97665">
        <ele>164.04</ele>
        <time>2020-12-20T15:46:48Z</time>
      </trkpt>
      <trkpt lat="49.63607" lon="4.97667">
        <ele>166.45</ele>
        <time>2020-12-20T15:47:06Z</time>
      </trkpt>
      <trkpt lat="49.63599" lon="4.97671">
        <ele>166.93</ele>
        <time>2020-12-20T15:47:21Z</time>
      </trkpt>
      <trkpt lat="49.63584" lon="4.9768">
        <ele>166.93</ele>
        <time>2020-12-20T15:47:36Z</time>
      </trkpt>
      <trkpt lat="49.63572" lon="4.97696">
        <ele>166.45</ele>
        <time>2020-12-20T15:47:52Z</time>
      </trkpt>
      <trkpt lat="49.63555" lon="4.97714">
        <ele>166.45</ele>
        <time>2020-12-20T15:48:10Z</time>
      </trkpt>
      <trkpt lat="49.63541" lon="4.97747">
        <ele>167.41</ele>
        <time>2020-12-20T15:48:32Z</time>
      </trkpt>
      <trkpt lat="49.63532" lon="4.97775">
        <ele>168.37</ele>
        <time>2020-12-20T15:48:52Z</time>
      </trkpt>
      <trkpt lat="49.63517" lon="4.97791">
        <ele>166.93</ele>
        <time>2020-12-20T15:49:09Z</time>
      </trkpt>
      <trkpt lat="49.63512" lon="4.97797">
        <ele>166.45</ele>
        <time>2020-12-20T15:49:15Z</time>
      </trkpt>
      <trkpt lat="49.63496" lon="4.97812">
        <ele>160.68</ele>
        <time>2020-12-20T15:49:31Z</time>
      </trkpt>
      <trkpt lat="49.63483" lon="4.97829">
        <ele>156.35</ele>
        <time>2020-12-20T15:49:48Z</time>
      </trkpt>
      <trkpt lat="49.63474" lon="4.97852">
        <ele>155.39</ele>
        <time>2020-12-20T15:50:03Z</time>
      </trkpt>
      <trkpt lat="49.63468" lon="4.97857">
        <ele>156.35</ele>
        <time>2020-12-20T15:50:10Z</time>
      </trkpt>
      <trkpt lat="49.63452" lon="4.97877">
        <ele>158.75</ele>
        <time>2020-12-20T15:50:29Z</time>
      </trkpt>
      <trkpt lat="49.6345" lon="4.97881">
        <ele>158.75</ele>
        <time>2020-12-20T15:50:32Z</time>
      </trkpt>
      <trkpt lat="49.63449" lon="4.97887">
        <ele>159.24</ele>
        <time>2020-12-20T15:50:36Z</time>
      </trkpt>
      <trkpt lat="49.63432" lon="4.97899">
        <ele>163.56</ele>
        <time>2020-12-20T15:50:53Z</time>
      </trkpt>
      <trkpt lat="49.63412" lon="4.97905">
        <ele>168.37</ele>
        <time>2020-12-20T15:51:12Z</time>
      </trkpt>
      <trkpt lat="49.63398" lon="4.97922">
        <ele>170.29</ele>
        <time>2020-12-20T15:51:30Z</time>
      </trkpt>
      <trkpt lat="49.63386" lon="4.97938">
        <ele>170.77</ele>
        <time>2020-12-20T15:51:47Z</time>
      </trkpt>
      <trkpt lat="49.6339" lon="4.9795">
        <ele>171.25</ele>
        <time>2020-12-20T15:52:02Z</time>
      </trkpt>
      <trkpt lat="49.63395" lon="4.97961">
        <ele>171.73</ele>
        <time>2020-12-20T15:52:12Z</time>
      </trkpt>
      <trkpt lat="49.63398" lon="4.9798">
        <ele>171.73</ele>
        <time>2020-12-20T15:52:26Z</time>
      </trkpt>
      <trkpt lat="49.63406" lon="4.98005">
        <ele>170.29</ele>
        <time>2020-12-20T15:52:43Z</time>
      </trkpt>
      <trkpt lat="49.6342" lon="4.98027">
        <ele>171.73</ele>
        <time>2020-12-20T15:53:04Z</time>
      </trkpt>
      <trkpt lat="49.63427" lon="4.9805">
        <ele>170.77</ele>
        <time>2020-12-20T15:53:22Z</time>
      </trkpt>
      <trkpt lat="49.63437" lon="4.9806">
        <ele>167.89</ele>
        <time>2020-12-20T15:53:36Z</time>
      </trkpt>
      <trkpt lat="49.6344" lon="4.98064">
        <ele>166.93</ele>
        <time>2020-12-20T15:53:54Z</time>
      </trkpt>
      <trkpt lat="49.63441" lon="4.98063">
        <ele>168.37</ele>
        <time>2020-12-20T15:54:12Z</time>
      </trkpt>
    </trkseg>
  </trk>
</gpx>